PWSweather.com
Personal Weather Stations
Station Observations
IK5PWS
LuccaIT 55100

LuccaIT 55100

Lat: 43.885743, Lon: 10.519805

Elevation: 100

Station Type: PCE-FWS20

Latest ConditionsUpdated 6:18:32 AM GMT+01:01 Thursday, Jun 27, 2019
Currently Today's Max Today's Min Today's Average
Temperature 77.9°F25.5°C 81.9°F27.7°C 76.8°F24.9°C 79.4°F26.3°C
Dew Point 54.8°F12.7°C 61.6°F16.4°C 54.5°F12.5°C 57.5°F14.2°C
Winds 8.3 mph NW13.4 kmh NW 15.9 mph -25.6 kmh - - 10.5 mph 16.9 kmh
Wind Gusts 13.0 mph20.9 kmh 21.3 mph34.3 kmh - -
Humidity 45% 51% 45% 47%
Pressure 30.19 in1022.4 mb 30.20 in1022.7 mb 30.18 in1022.0 mb -
Hour Temp Dew Point Humidity Winds Wind Gusts Pressure Precip Precip Rate Daily Precip Total
06:18 AM 77.9°F25.5°C 54.8°F12.7°C 45% 8.3 mph NW13.4 kmh NW 13.0 mph20.9 kmh 30.19 in1022.4 mb 0.00 in0.0 mm 0.00 in0.0 mm 0.00 in0.0 mm
06:17 AM 77.9°F25.5°C 54.8°F12.7°C 45% 10.7 mph 17.2 kmh 15.9 mph25.6 kmh 30.19 in1022.4 mb 0.00 in0.0 mm 0.00 in0.0 mm 0.00 in0.0 mm
06:16 AM 77.9°F25.5°C 54.8°F12.7°C 45% 10.7 mph 17.2 kmh 15.9 mph25.6 kmh 30.19 in1022.4 mb 0.00 in0.0 mm 0.00 in0.0 mm 0.00 in0.0 mm
06:15 AM 77.7°F25.4°C 54.7°F12.6°C 45% 9.2 mph 14.8 kmh 13.0 mph20.9 kmh 30.19 in1022.4 mb 0.00 in0.0 mm 0.00 in0.0 mm 0.00 in0.0 mm
06:14 AM 77.7°F25.4°C 54.7°F12.6°C 45% 12.1 mph 19.5 kmh 16.8 mph27.0 kmh 30.19 in1022.4 mb 0.00 in0.0 mm 0.00 in0.0 mm 0.00 in0.0 mm
06:13 AM 77.7°F25.4°C 54.7°F12.6°C 45% 12.1 mph 19.5 kmh 16.8 mph27.0 kmh 30.19 in1022.4 mb 0.00 in0.0 mm 0.00 in0.0 mm 0.00 in0.0 mm
06:12 AM 77.7°F25.4°C 54.7°F12.6°C 45% 10.7 mph NW17.2 kmh NW 15.2 mph24.5 kmh 30.19 in1022.4 mb 0.00 in0.0 mm 0.00 in0.0 mm 0.00 in0.0 mm
06:11 AM 77.7°F25.4°C 54.7°F12.6°C 45% 15.9 mph 25.6 kmh 19.7 mph31.7 kmh 30.19 in1022.4 mb 0.00 in0.0 mm 0.00 in0.0 mm 0.00 in0.0 mm
06:10 AM 77.7°F25.4°C 54.7°F12.6°C 45% 15.9 mph 25.6 kmh 19.7 mph31.7 kmh 30.19 in1022.4 mb 0.00 in0.0 mm 0.00 in0.0 mm 0.00 in0.0 mm
06:09 AM 77.7°F25.4°C 54.7°F12.6°C 45% 13.7 mph NW22.0 kmh NW 18.3 mph29.5 kmh 30.19 in1022.4 mb 0.00 in0.0 mm 0.00 in0.0 mm 0.00 in0.0 mm
06:08 AM 77.7°F25.4°C 54.7°F12.6°C 45% 11.4 mph 18.3 kmh 15.9 mph25.6 kmh 30.19 in1022.4 mb 0.00 in0.0 mm 0.00 in0.0 mm 0.00 in0.0 mm
06:07 AM 77.7°F25.4°C 54.7°F12.6°C 45% 12.1 mph NNW19.5 kmh NNW 15.9 mph25.6 kmh 30.19 in1022.4 mb 0.00 in0.0 mm 0.00 in0.0 mm 0.00 in0.0 mm
06:06 AM 77.5°F25.3°C 54.5°F12.5°C 45% 8.3 mph NW13.4 kmh NW 13.0 mph20.9 kmh 30.19 in1022.4 mb 0.00 in0.0 mm 0.00 in0.0 mm 0.00 in0.0 mm
06:05 AM 77.5°F25.3°C 54.5°F12.5°C 45% 8.3 mph NW13.4 kmh NW 13.0 mph20.9 kmh 30.19 in1022.4 mb 0.00 in0.0 mm 0.00 in0.0 mm 0.00 in0.0 mm
06:04 AM 77.5°F25.3°C 55.1°F12.8°C 46% 14.5 mph NNW23.3 kmh NNW 19.7 mph31.7 kmh 30.19 in1022.4 mb 0.00 in0.0 mm 0.00 in0.0 mm 0.00 in0.0 mm
06:03 AM 77.5°F25.3°C 55.1°F12.8°C 46% 11.4 mph NW18.3 kmh NW 15.2 mph24.5 kmh 30.19 in1022.4 mb 0.00 in0.0 mm 0.00 in0.0 mm 0.00 in0.0 mm
06:02 AM 77.5°F25.3°C 55.1°F12.8°C 46% 11.4 mph NW18.3 kmh NW 15.2 mph24.5 kmh 30.19 in1022.4 mb 0.00 in0.0 mm 0.00 in0.0 mm 0.00 in0.0 mm
06:01 AM 77.5°F25.3°C 55.1°F12.8°C 46% 14.5 mph NNW23.3 kmh NNW 20.6 mph33.2 kmh 30.19 in1022.4 mb 0.00 in0.0 mm 0.00 in0.0 mm 0.00 in0.0 mm
06:00 AM 77.5°F25.3°C 55.1°F12.8°C 46% 14.5 mph NNW23.3 kmh NNW 20.6 mph33.2 kmh 30.19 in1022.4 mb 0.00 in0.0 mm 0.00 in0.0 mm 0.00 in0.0 mm
05:59 AM 77.5°F25.3°C 55.1°F12.8°C 46% 9.8 mph 15.8 kmh 12.1 mph19.5 kmh 30.19 in1022.4 mb 0.00 in0.0 mm 0.00 in0.0 mm 0.00 in0.0 mm
05:58 AM 77.5°F25.3°C 55.1°F12.8°C 46% 12.1 mph SE19.5 kmh SE 14.5 mph23.3 kmh 30.19 in1022.4 mb 0.00 in0.0 mm 0.00 in0.0 mm 0.00 in0.0 mm
05:57 AM 77.5°F25.3°C 55.1°F12.8°C 46% 12.1 mph SE19.5 kmh SE 14.5 mph23.3 kmh 30.19 in1022.4 mb 0.00 in0.0 mm 0.00 in0.0 mm 0.00 in0.0 mm
05:56 AM 77.4°F25.2°C 54.9°F12.7°C 46% 10.7 mph NNW17.2 kmh NNW 15.9 mph25.6 kmh 30.18 in1022.0 mb 0.00 in0.0 mm 0.00 in0.0 mm 0.00 in0.0 mm
05:55 AM 77.4°F25.2°C 54.9°F12.7°C 46% 11.4 mph NW18.3 kmh NW 17.5 mph28.2 kmh 30.19 in1022.4 mb 0.00 in0.0 mm 0.00 in0.0 mm 0.00 in0.0 mm
05:54 AM 77.4°F25.2°C 54.9°F12.7°C 46% 13.0 mph NNW20.9 kmh NNW 17.5 mph28.2 kmh 30.19 in1022.4 mb 0.00 in0.0 mm 0.00 in0.0 mm 0.00 in0.0 mm
05:53 AM 77.4°F25.2°C 54.9°F12.7°C 46% 13.0 mph NNW20.9 kmh NNW 17.5 mph28.2 kmh 30.19 in1022.4 mb 0.00 in0.0 mm 0.00 in0.0 mm 0.00 in0.0 mm
05:52 AM 77.4°F25.2°C 54.9°F12.7°C 46% 13.0 mph NNW20.9 kmh NNW 17.5 mph28.2 kmh 30.18 in1022.0 mb 0.00 in0.0 mm 0.00 in0.0 mm 0.00 in0.0 mm
05:51 AM 77.4°F25.2°C 55.5°F13.1°C 47% 9.8 mph NNW15.8 kmh NNW 17.5 mph28.2 kmh 30.19 in1022.4 mb 0.00 in0.0 mm 0.00 in0.0 mm 0.00 in0.0 mm
05:50 AM 77.4°F25.2°C 55.5°F13.1°C 47% 9.8 mph NNW15.8 kmh NNW 17.5 mph28.2 kmh 30.19 in1022.4 mb 0.00 in0.0 mm 0.00 in0.0 mm 0.00 in0.0 mm
05:49 AM 77.4°F25.2°C 55.5°F13.1°C 47% 9.8 mph NNW15.8 kmh NNW 17.5 mph28.2 kmh 30.19 in1022.4 mb 0.00 in0.0 mm 0.00 in0.0 mm 0.00 in0.0 mm
05:48 AM 77.4°F25.2°C 54.9°F12.7°C 46% 13.0 mph NW20.9 kmh NW 15.2 mph24.5 kmh 30.19 in1022.4 mb 0.00 in0.0 mm 0.00 in0.0 mm 0.00 in0.0 mm
05:47 AM 77.4°F25.2°C 54.9°F12.7°C 46% 11.4 mph W18.3 kmh W 17.5 mph28.2 kmh 30.19 in1022.4 mb 0.00 in0.0 mm 0.00 in0.0 mm 0.00 in0.0 mm
05:46 AM 77.4°F25.2°C 54.9°F12.7°C 46% 11.4 mph W18.3 kmh W 17.5 mph28.2 kmh 30.19 in1022.4 mb 0.00 in0.0 mm 0.00 in0.0 mm 0.00 in0.0 mm
05:45 AM 77.4°F25.2°C 54.9°F12.7°C 46% 13.7 mph 22.0 kmh 17.5 mph28.2 kmh 30.19 in1022.4 mb 0.00 in0.0 mm 0.00 in0.0 mm 0.00 in0.0 mm
05:44 AM 77.4°F25.2°C 54.9°F12.7°C 46% 13.7 mph 22.0 kmh 17.5 mph28.2 kmh 30.19 in1022.4 mb 0.00 in0.0 mm 0.00 in0.0 mm 0.00 in0.0 mm
05:43 AM 77.4°F25.2°C 54.9°F12.7°C 46% 11.4 mph SW18.3 kmh SW 14.5 mph23.3 kmh 30.19 in1022.4 mb 0.00 in0.0 mm 0.00 in0.0 mm 0.00 in0.0 mm
05:42 AM 77.4°F25.2°C 54.9°F12.7°C 46% 7.6 mph 12.2 kmh 10.7 mph17.2 kmh 30.19 in1022.4 mb 0.00 in0.0 mm 0.00 in0.0 mm 0.00 in0.0 mm
05:41 AM 77.4°F25.2°C 54.9°F12.7°C 46% 7.6 mph 12.2 kmh 10.7 mph17.2 kmh 30.19 in1022.4 mb 0.00 in0.0 mm 0.00 in0.0 mm 0.00 in0.0 mm
05:40 AM 77.4°F25.2°C 54.9°F12.7°C 46% 8.3 mph 13.4 kmh 12.1 mph19.5 kmh 30.19 in1022.4 mb 0.00 in0.0 mm 0.00 in0.0 mm 0.00 in0.0 mm
05:39 AM 77.2°F25.1°C 54.8°F12.7°C 46% 13.7 mph 22.0 kmh 18.3 mph29.5 kmh 30.19 in1022.4 mb 0.00 in0.0 mm 0.00 in0.0 mm 0.00 in0.0 mm
05:38 AM 77.2°F25.1°C 54.8°F12.7°C 46% 13.7 mph 22.0 kmh 18.3 mph29.5 kmh 30.19 in1022.4 mb 0.00 in0.0 mm 0.00 in0.0 mm 0.00 in0.0 mm
05:37 AM 77.2°F25.1°C 54.8°F12.7°C 46% 12.1 mph NNW19.5 kmh NNW 18.3 mph29.5 kmh 30.19 in1022.4 mb 0.00 in0.0 mm 0.00 in0.0 mm 0.00 in0.0 mm
05:36 AM 77.2°F25.1°C 54.8°F12.7°C 46% 12.1 mph NNW19.5 kmh NNW 18.3 mph29.5 kmh 30.18 in1022.0 mb 0.00 in0.0 mm 0.00 in0.0 mm 0.00 in0.0 mm
05:35 AM 77.0°F25.0°C 55.2°F12.9°C 47% 12.1 mph 19.5 kmh 20.6 mph33.2 kmh 30.19 in1022.4 mb 0.00 in0.0 mm 0.00 in0.0 mm 0.00 in0.0 mm
05:34 AM 77.0°F25.0°C 55.2°F12.9°C 47% 11.4 mph 18.3 kmh 15.9 mph25.6 kmh 30.19 in1022.4 mb 0.00 in0.0 mm 0.00 in0.0 mm 0.00 in0.0 mm
05:33 AM 77.0°F25.0°C 55.2°F12.9°C 47% 11.4 mph 18.3 kmh 15.9 mph25.6 kmh 30.19 in1022.4 mb 0.00 in0.0 mm 0.00 in0.0 mm 0.00 in0.0 mm
05:32 AM 76.8°F24.9°C 55.6°F13.1°C 48% 7.6 mph SE12.2 kmh SE 13.0 mph20.9 kmh 30.19 in1022.4 mb 0.00 in0.0 mm 0.00 in0.0 mm 0.00 in0.0 mm
05:31 AM 77.0°F25.0°C 55.2°F12.9°C 47% 10.7 mph 17.2 kmh 13.7 mph22.0 kmh 30.19 in1022.4 mb 0.00 in0.0 mm 0.00 in0.0 mm 0.00 in0.0 mm
05:30 AM 77.0°F25.0°C 55.2°F12.9°C 47% 10.7 mph 17.2 kmh 13.7 mph22.0 kmh 30.19 in1022.4 mb 0.00 in0.0 mm 0.00 in0.0 mm 0.00 in0.0 mm
05:29 AM 77.0°F25.0°C 55.2°F12.9°C 47% 10.7 mph 17.2 kmh 13.7 mph22.0 kmh 30.19 in1022.4 mb 0.00 in0.0 mm 0.00 in0.0 mm 0.00 in0.0 mm
05:28 AM 77.0°F25.0°C 55.2°F12.9°C 47% 10.7 mph 17.2 kmh 13.7 mph22.0 kmh 30.19 in1022.4 mb 0.00 in0.0 mm 0.00 in0.0 mm 0.00 in0.0 mm
05:27 AM 77.0°F25.0°C 55.2°F12.9°C 47% 12.1 mph NW19.5 kmh NW 15.2 mph24.5 kmh 30.19 in1022.4 mb 0.00 in0.0 mm 0.00 in0.0 mm 0.00 in0.0 mm
05:26 AM 77.0°F25.0°C 54.6°F12.6°C 46% 6.9 mph NW11.1 kmh NW 10.7 mph17.2 kmh 30.19 in1022.4 mb 0.00 in0.0 mm 0.00 in0.0 mm 0.00 in0.0 mm
05:25 AM 77.0°F25.0°C 54.6°F12.6°C 46% 6.9 mph NW11.1 kmh NW 10.7 mph17.2 kmh 30.19 in1022.4 mb 0.00 in0.0 mm 0.00 in0.0 mm 0.00 in0.0 mm
05:24 AM 77.0°F25.0°C 54.6°F12.6°C 46% 11.4 mph 18.3 kmh 16.8 mph27.0 kmh 30.19 in1022.4 mb 0.00 in0.0 mm 0.00 in0.0 mm 0.00 in0.0 mm
05:23 AM 77.2°F25.1°C 54.8°F12.7°C 46% 10.7 mph 17.2 kmh 13.7 mph22.0 kmh 30.19 in1022.4 mb 0.00 in0.0 mm 0.00 in0.0 mm 0.00 in0.0 mm
05:22 AM 77.2°F25.1°C 54.8°F12.7°C 46% 10.7 mph 17.2 kmh 13.7 mph22.0 kmh 30.19 in1022.4 mb 0.00 in0.0 mm 0.00 in0.0 mm 0.00 in0.0 mm
05:21 AM 77.2°F25.1°C 54.8°F12.7°C 46% 13.0 mph 20.9 kmh 18.3 mph29.5 kmh 30.19 in1022.4 mb 0.00 in0.0 mm 0.00 in0.0 mm 0.00 in0.0 mm
05:20 AM 77.2°F25.1°C 54.8°F12.7°C 46% 13.0 mph 20.9 kmh 18.3 mph29.5 kmh 30.18 in1022.0 mb 0.00 in0.0 mm 0.00 in0.0 mm 0.00 in0.0 mm
05:19 AM 77.4°F25.2°C 54.9°F12.7°C 46% 11.4 mph NW18.3 kmh NW 16.8 mph27.0 kmh 30.19 in1022.4 mb 0.00 in0.0 mm 0.00 in0.0 mm 0.00 in0.0 mm
05:18 AM 77.4°F25.2°C 54.9°F12.7°C 46% 9.8 mph 15.8 kmh 13.0 mph20.9 kmh 30.19 in1022.4 mb 0.00 in0.0 mm 0.00 in0.0 mm 0.00 in0.0 mm
05:17 AM 77.5°F25.3°C 55.1°F12.8°C 46% 6.9 mph 11.1 kmh 10.7 mph17.2 kmh 30.19 in1022.4 mb 0.00 in0.0 mm 0.00 in0.0 mm 0.00 in0.0 mm
05:16 AM 77.5°F25.3°C 55.1°F12.8°C 46% 6.9 mph 11.1 kmh 10.7 mph17.2 kmh 30.18 in1022.0 mb 0.00 in0.0 mm 0.00 in0.0 mm 0.00 in0.0 mm
05:15 AM 77.5°F25.3°C 55.1°F12.8°C 46% 10.7 mph NNW17.2 kmh NNW 14.5 mph23.3 kmh 30.19 in1022.4 mb 0.00 in0.0 mm 0.00 in0.0 mm 0.00 in0.0 mm
05:14 AM 77.7°F25.4°C 54.7°F12.6°C 45% 12.1 mph 19.5 kmh 14.5 mph23.3 kmh 30.19 in1022.4 mb 0.00 in0.0 mm 0.00 in0.0 mm 0.00 in0.0 mm
05:13 AM 77.7°F25.4°C 54.7°F12.6°C 45% 12.1 mph 19.5 kmh 14.5 mph23.3 kmh 30.19 in1022.4 mb 0.00 in0.0 mm 0.00 in0.0 mm 0.00 in0.0 mm
05:12 AM 77.7°F25.4°C 54.7°F12.6°C 45% 7.6 mph NW12.2 kmh NW 10.7 mph17.2 kmh 30.19 in1022.4 mb 0.00 in0.0 mm 0.00 in0.0 mm 0.00 in0.0 mm
05:11 AM 77.7°F25.4°C 54.7°F12.6°C 45% 9.8 mph NW15.8 kmh NW 12.1 mph19.5 kmh 30.19 in1022.4 mb 0.00 in0.0 mm 0.00 in0.0 mm 0.00 in0.0 mm
05:10 AM 77.7°F25.4°C 54.7°F12.6°C 45% 9.8 mph NW15.8 kmh NW 12.1 mph19.5 kmh 30.19 in1022.4 mb 0.00 in0.0 mm 0.00 in0.0 mm 0.00 in0.0 mm
05:09 AM 77.7°F25.4°C 54.7°F12.6°C 45% 6.9 mph NW11.1 kmh NW 11.4 mph18.3 kmh 30.19 in1022.4 mb 0.00 in0.0 mm 0.00 in0.0 mm 0.00 in0.0 mm
05:08 AM 77.7°F25.4°C 54.7°F12.6°C 45% 6.9 mph NW11.1 kmh NW 11.4 mph18.3 kmh 30.19 in1022.4 mb 0.00 in0.0 mm 0.00 in0.0 mm 0.00 in0.0 mm
05:07 AM 77.9°F25.5°C 54.8°F12.7°C 45% 8.3 mph NW13.4 kmh NW 13.0 mph20.9 kmh 30.19 in1022.4 mb 0.00 in0.0 mm 0.00 in0.0 mm 0.00 in0.0 mm
05:06 AM 77.9°F25.5°C 54.8°F12.7°C 45% 8.3 mph NW13.4 kmh NW 13.0 mph20.9 kmh 30.19 in1022.4 mb 0.00 in0.0 mm 0.00 in0.0 mm 0.00 in0.0 mm
05:05 AM 77.9°F25.5°C 54.8°F12.7°C 45% 8.3 mph NW13.4 kmh NW 13.0 mph20.9 kmh 30.19 in1022.4 mb 0.00 in0.0 mm 0.00 in0.0 mm 0.00 in0.0 mm
05:04 AM 77.9°F25.5°C 54.8°F12.7°C 45% 8.3 mph NW13.4 kmh NW 13.0 mph20.9 kmh 30.19 in1022.4 mb 0.00 in0.0 mm 0.00 in0.0 mm 0.00 in0.0 mm
05:03 AM 77.9°F25.5°C 54.8°F12.7°C 45% 8.3 mph NW13.4 kmh NW 13.0 mph20.9 kmh 30.19 in1022.4 mb 0.00 in0.0 mm 0.00 in0.0 mm 0.00 in0.0 mm
05:02 AM 77.9°F25.5°C 54.8°F12.7°C 45% 8.3 mph NW13.4 kmh NW 13.0 mph20.9 kmh 30.19 in1022.4 mb 0.00 in0.0 mm 0.00 in0.0 mm 0.00 in0.0 mm
05:01 AM 77.9°F25.5°C 54.8°F12.7°C 45% 8.3 mph NW13.4 kmh NW 13.0 mph20.9 kmh 30.19 in1022.4 mb 0.00 in0.0 mm 0.00 in0.0 mm 0.00 in0.0 mm
05:00 AM 77.9°F25.5°C 54.8°F12.7°C 45% 8.3 mph NW13.4 kmh NW 13.0 mph20.9 kmh 30.19 in1022.4 mb 0.00 in0.0 mm 0.00 in0.0 mm 0.00 in0.0 mm
04:59 AM 77.9°F25.5°C 54.8°F12.7°C 45% 8.3 mph NW13.4 kmh NW 13.0 mph20.9 kmh 30.18 in1022.0 mb 0.00 in0.0 mm 0.00 in0.0 mm 0.00 in0.0 mm
04:58 AM 77.9°F25.5°C 54.8°F12.7°C 45% 10.7 mph W17.2 kmh W 13.0 mph20.9 kmh 30.19 in1022.4 mb 0.00 in0.0 mm 0.00 in0.0 mm 0.00 in0.0 mm
04:57 AM 77.9°F25.5°C 54.8°F12.7°C 45% 10.7 mph W17.2 kmh W 13.0 mph20.9 kmh 30.18 in1022.0 mb 0.00 in0.0 mm 0.00 in0.0 mm 0.00 in0.0 mm
04:56 AM 78.1°F25.6°C 55.0°F12.8°C 45% 6.9 mph 11.1 kmh 12.1 mph19.5 kmh 30.19 in1022.4 mb 0.00 in0.0 mm 0.00 in0.0 mm 0.00 in0.0 mm
04:55 AM 78.1°F25.6°C 55.0°F12.8°C 45% 13.0 mph WNW20.9 kmh WNW 18.3 mph29.5 kmh 30.19 in1022.4 mb 0.00 in0.0 mm 0.00 in0.0 mm 0.00 in0.0 mm
04:54 AM 78.1°F25.6°C 55.0°F12.8°C 45% 13.0 mph WNW20.9 kmh WNW 18.3 mph29.5 kmh 30.18 in1022.0 mb 0.00 in0.0 mm 0.00 in0.0 mm 0.00 in0.0 mm
04:53 AM 78.1°F25.6°C 55.0°F12.8°C 45% 9.2 mph NW14.8 kmh NW 18.3 mph29.5 kmh 30.19 in1022.4 mb 0.00 in0.0 mm 0.00 in0.0 mm 0.00 in0.0 mm
04:52 AM 78.1°F25.6°C 55.0°F12.8°C 45% 9.2 mph NW14.8 kmh NW 18.3 mph29.5 kmh 30.19 in1022.4 mb 0.00 in0.0 mm 0.00 in0.0 mm 0.00 in0.0 mm
04:51 AM 78.3°F25.7°C 55.2°F12.9°C 45% 7.6 mph NW12.2 kmh NW 10.7 mph17.2 kmh 30.19 in1022.4 mb 0.00 in0.0 mm 0.00 in0.0 mm 0.00 in0.0 mm
04:50 AM 78.3°F25.7°C 55.2°F12.9°C 45% 9.8 mph 15.8 kmh 14.5 mph23.3 kmh 30.19 in1022.4 mb 0.00 in0.0 mm 0.00 in0.0 mm 0.00 in0.0 mm
04:49 AM 78.3°F25.7°C 55.2°F12.9°C 45% 9.8 mph 15.8 kmh 14.5 mph23.3 kmh 30.18 in1022.0 mb 0.00 in0.0 mm 0.00 in0.0 mm 0.00 in0.0 mm
04:48 AM 78.1°F25.6°C 55.0°F12.8°C 45% 6.0 mph 9.7 kmh 9.2 mph14.8 kmh 30.19 in1022.4 mb 0.00 in0.0 mm 0.00 in0.0 mm 0.00 in0.0 mm
04:47 AM 78.3°F25.7°C 55.2°F12.9°C 45% 8.3 mph 13.4 kmh 13.7 mph22.0 kmh 30.18 in1022.0 mb 0.00 in0.0 mm 0.00 in0.0 mm 0.00 in0.0 mm
04:46 AM 78.3°F25.7°C 55.2°F12.9°C 45% 8.3 mph 13.4 kmh 13.7 mph22.0 kmh 30.19 in1022.4 mb 0.00 in0.0 mm 0.00 in0.0 mm 0.00 in0.0 mm
04:45 AM 78.3°F25.7°C 55.2°F12.9°C 45% 7.6 mph W12.2 kmh W 15.9 mph25.6 kmh 30.19 in1022.4 mb 0.00 in0.0 mm 0.00 in0.0 mm 0.00 in0.0 mm
04:44 AM 78.3°F25.7°C 55.2°F12.9°C 45% 7.6 mph W12.2 kmh W 15.9 mph25.6 kmh 30.19 in1022.4 mb 0.00 in0.0 mm 0.00 in0.0 mm 0.00 in0.0 mm
04:43 AM 78.3°F25.7°C 55.2°F12.9°C 45% 8.3 mph 13.4 kmh 13.0 mph20.9 kmh 30.19 in1022.4 mb 0.00 in0.0 mm 0.00 in0.0 mm 0.00 in0.0 mm
04:42 AM 78.3°F25.7°C 55.2°F12.9°C 45% 7.6 mph SW12.2 kmh SW 9.8 mph15.8 kmh 30.18 in1022.0 mb 0.00 in0.0 mm 0.00 in0.0 mm 0.00 in0.0 mm
04:41 AM 78.3°F25.7°C 55.2°F12.9°C 45% 7.6 mph SW12.2 kmh SW 9.8 mph15.8 kmh 30.18 in1022.0 mb 0.00 in0.0 mm 0.00 in0.0 mm 0.00 in0.0 mm
04:40 AM 78.3°F25.7°C 55.2°F12.9°C 45% 8.3 mph NW13.4 kmh NW 13.0 mph20.9 kmh 30.18 in1022.0 mb 0.00 in0.0 mm 0.00 in0.0 mm 0.00 in0.0 mm
04:39 AM 78.3°F25.7°C 55.2°F12.9°C 45% 9.2 mph 14.8 kmh 14.5 mph23.3 kmh 30.18 in1022.0 mb 0.00 in0.0 mm 0.00 in0.0 mm 0.00 in0.0 mm
04:38 AM 78.3°F25.7°C 55.2°F12.9°C 45% 9.2 mph 14.8 kmh 14.5 mph23.3 kmh 30.18 in1022.0 mb 0.00 in0.0 mm 0.00 in0.0 mm 0.00 in0.0 mm
04:37 AM 78.3°F25.7°C 55.2°F12.9°C 45% 9.8 mph NW15.8 kmh NW 15.2 mph24.5 kmh 30.18 in1022.0 mb 0.00 in0.0 mm 0.00 in0.0 mm 0.00 in0.0 mm
04:36 AM 78.3°F25.7°C 55.2°F12.9°C 45% 9.8 mph NW15.8 kmh NW 15.2 mph24.5 kmh 30.18 in1022.0 mb 0.00 in0.0 mm 0.00 in0.0 mm 0.00 in0.0 mm
04:35 AM 78.3°F25.7°C 55.2°F12.9°C 45% 9.8 mph SE15.8 kmh SE 13.7 mph22.0 kmh 30.18 in1022.0 mb 0.00 in0.0 mm 0.00 in0.0 mm 0.00 in0.0 mm
04:34 AM 78.3°F25.7°C 55.2°F12.9°C 45% 11.4 mph WNW18.3 kmh WNW 15.9 mph25.6 kmh 30.18 in1022.0 mb 0.00 in0.0 mm 0.00 in0.0 mm 0.00 in0.0 mm
04:33 AM 78.3°F25.7°C 55.2°F12.9°C 45% 11.4 mph WNW18.3 kmh WNW 15.9 mph25.6 kmh 30.18 in1022.0 mb 0.00 in0.0 mm 0.00 in0.0 mm 0.00 in0.0 mm
04:32 AM 78.3°F25.7°C 55.2°F12.9°C 45% 11.4 mph 18.3 kmh 16.8 mph27.0 kmh 30.18 in1022.0 mb 0.00 in0.0 mm 0.00 in0.0 mm 0.00 in0.0 mm
04:31 AM 78.4°F25.8°C 55.3°F12.9°C 45% 9.8 mph SE15.8 kmh SE 15.9 mph25.6 kmh 30.18 in1022.0 mb 0.00 in0.0 mm 0.00 in0.0 mm 0.00 in0.0 mm
04:30 AM 78.4°F25.8°C 55.3°F12.9°C 45% 9.8 mph SE15.8 kmh SE 15.9 mph25.6 kmh 30.18 in1022.0 mb 0.00 in0.0 mm 0.00 in0.0 mm 0.00 in0.0 mm
04:29 AM 78.4°F25.8°C 55.3°F12.9°C 45% 9.2 mph NW14.8 kmh NW 11.4 mph18.3 kmh 30.18 in1022.0 mb 0.00 in0.0 mm 0.00 in0.0 mm 0.00 in0.0 mm
04:28 AM 78.4°F25.8°C 55.3°F12.9°C 45% 6.9 mph NW11.1 kmh NW 11.4 mph18.3 kmh 30.18 in1022.0 mb 0.00 in0.0 mm 0.00 in0.0 mm 0.00 in0.0 mm
04:27 AM 78.4°F25.8°C 55.3°F12.9°C 45% 9.2 mph 14.8 kmh 13.7 mph22.0 kmh 30.19 in1022.4 mb 0.00 in0.0 mm 0.00 in0.0 mm 0.00 in0.0 mm
04:26 AM 78.4°F25.8°C 55.3°F12.9°C 45% 9.8 mph NW15.8 kmh NW 12.1 mph19.5 kmh 30.19 in1022.4 mb 0.00 in0.0 mm 0.00 in0.0 mm 0.00 in0.0 mm
04:25 AM 78.4°F25.8°C 55.3°F12.9°C 45% 9.8 mph NW15.8 kmh NW 12.1 mph19.5 kmh 30.19 in1022.4 mb 0.00 in0.0 mm 0.00 in0.0 mm 0.00 in0.0 mm
04:24 AM 78.4°F25.8°C 55.9°F13.3°C 46% 12.1 mph NW19.5 kmh NW 17.5 mph28.2 kmh 30.18 in1022.0 mb 0.00 in0.0 mm 0.00 in0.0 mm 0.00 in0.0 mm
04:23 AM 78.4°F25.8°C 55.9°F13.3°C 46% 12.1 mph SW19.5 kmh SW 17.5 mph28.2 kmh 30.18 in1022.0 mb 0.00 in0.0 mm 0.00 in0.0 mm 0.00 in0.0 mm
04:22 AM 78.4°F25.8°C 55.9°F13.3°C 46% 12.1 mph SW19.5 kmh SW 17.5 mph28.2 kmh 30.18 in1022.0 mb 0.00 in0.0 mm 0.00 in0.0 mm 0.00 in0.0 mm
04:21 AM 78.4°F25.8°C 55.9°F13.3°C 46% 6.0 mph 9.7 kmh 9.2 mph14.8 kmh 30.18 in1022.0 mb 0.00 in0.0 mm 0.00 in0.0 mm 0.00 in0.0 mm
04:20 AM 78.4°F25.8°C 55.9°F13.3°C 46% 6.0 mph 9.7 kmh 9.2 mph14.8 kmh 30.18 in1022.0 mb 0.00 in0.0 mm 0.00 in0.0 mm 0.00 in0.0 mm
04:19 AM 78.4°F25.8°C 55.9°F13.3°C 46% 11.4 mph 18.3 kmh 15.2 mph24.5 kmh 30.18 in1022.0 mb 0.00 in0.0 mm 0.00 in0.0 mm 0.00 in0.0 mm
04:18 AM 78.4°F25.8°C 55.9°F13.3°C 46% 10.7 mph NW17.2 kmh NW 14.5 mph23.3 kmh 30.18 in1022.0 mb 0.00 in0.0 mm 0.00 in0.0 mm 0.00 in0.0 mm
04:17 AM 78.4°F25.8°C 55.9°F13.3°C 46% 10.7 mph NW17.2 kmh NW 14.5 mph23.3 kmh 30.18 in1022.0 mb 0.00 in0.0 mm 0.00 in0.0 mm 0.00 in0.0 mm
04:16 AM 78.4°F25.8°C 55.9°F13.3°C 46% 10.7 mph NW17.2 kmh NW 16.8 mph27.0 kmh 30.18 in1022.0 mb 0.00 in0.0 mm 0.00 in0.0 mm 0.00 in0.0 mm
04:15 AM 78.4°F25.8°C 55.9°F13.3°C 46% 14.5 mph W23.3 kmh W 17.5 mph28.2 kmh 30.18 in1022.0 mb 0.00 in0.0 mm 0.00 in0.0 mm 0.00 in0.0 mm
04:14 AM 78.4°F25.8°C 55.9°F13.3°C 46% 14.5 mph W23.3 kmh W 17.5 mph28.2 kmh 30.18 in1022.0 mb 0.00 in0.0 mm 0.00 in0.0 mm 0.00 in0.0 mm
04:13 AM 78.4°F25.8°C 55.9°F13.3°C 46% 10.7 mph WNW17.2 kmh WNW 14.5 mph23.3 kmh 30.18 in1022.0 mb 0.00 in0.0 mm 0.00 in0.0 mm 0.00 in0.0 mm
04:12 AM 78.4°F25.8°C 55.9°F13.3°C 46% 10.7 mph WNW17.2 kmh WNW 14.5 mph23.3 kmh 30.18 in1022.0 mb 0.00 in0.0 mm 0.00 in0.0 mm 0.00 in0.0 mm
04:11 AM 78.6°F25.9°C 56.1°F13.4°C 46% 10.7 mph SE17.2 kmh SE 13.7 mph22.0 kmh 30.18 in1022.0 mb 0.00 in0.0 mm 0.00 in0.0 mm 0.00 in0.0 mm
04:10 AM 78.6°F25.9°C 56.1°F13.4°C 46% 10.7 mph 17.2 kmh 15.9 mph25.6 kmh 30.18 in1022.0 mb 0.00 in0.0 mm 0.00 in0.0 mm 0.00 in0.0 mm
04:09 AM 78.6°F25.9°C 56.1°F13.4°C 46% 10.7 mph 17.2 kmh 15.9 mph25.6 kmh 30.18 in1022.0 mb 0.00 in0.0 mm 0.00 in0.0 mm 0.00 in0.0 mm
04:08 AM 78.8°F26.0°C 55.6°F13.1°C 45% 9.2 mph NW14.8 kmh NW 11.4 mph18.3 kmh 30.18 in1022.0 mb 0.00 in0.0 mm 0.00 in0.0 mm 0.00 in0.0 mm
04:07 AM 78.8°F26.0°C 55.6°F13.1°C 45% 8.3 mph NW13.4 kmh NW 13.7 mph22.0 kmh 30.18 in1022.0 mb 0.00 in0.0 mm 0.00 in0.0 mm 0.00 in0.0 mm
04:06 AM 78.8°F26.0°C 55.6°F13.1°C 45% 8.3 mph NW13.4 kmh NW 13.7 mph22.0 kmh 30.18 in1022.0 mb 0.00 in0.0 mm 0.00 in0.0 mm 0.00 in0.0 mm
04:05 AM 78.8°F26.0°C 55.6°F13.1°C 45% 11.4 mph NW18.3 kmh NW 14.5 mph23.3 kmh 30.18 in1022.0 mb 0.00 in0.0 mm 0.00 in0.0 mm 0.00 in0.0 mm
04:04 AM 78.8°F26.0°C 55.6°F13.1°C 45% 11.4 mph NW18.3 kmh NW 14.5 mph23.3 kmh 30.18 in1022.0 mb 0.00 in0.0 mm 0.00 in0.0 mm 0.00 in0.0 mm
04:03 AM 78.8°F26.0°C 55.6°F13.1°C 45% 10.7 mph NNW17.2 kmh NNW 13.7 mph22.0 kmh 30.18 in1022.0 mb 0.00 in0.0 mm 0.00 in0.0 mm 0.00 in0.0 mm
04:02 AM 78.8°F26.0°C 55.6°F13.1°C 45% 9.2 mph 14.8 kmh 11.4 mph18.3 kmh 30.18 in1022.0 mb 0.00 in0.0 mm 0.00 in0.0 mm 0.00 in0.0 mm
04:01 AM 78.8°F26.0°C 55.6°F13.1°C 45% 9.2 mph 14.8 kmh 11.4 mph18.3 kmh 30.18 in1022.0 mb 0.00 in0.0 mm 0.00 in0.0 mm 0.00 in0.0 mm
04:00 AM 78.8°F26.0°C 55.6°F13.1°C 45% 13.0 mph 20.9 kmh 17.5 mph28.2 kmh 30.18 in1022.0 mb 0.00 in0.0 mm 0.00 in0.0 mm 0.00 in0.0 mm
03:59 AM 78.8°F26.0°C 55.6°F13.1°C 45% 9.2 mph WNW14.8 kmh WNW 13.7 mph22.0 kmh 30.18 in1022.0 mb 0.00 in0.0 mm 0.00 in0.0 mm 0.00 in0.0 mm
03:58 AM 78.8°F26.0°C 55.6°F13.1°C 45% 11.4 mph NW18.3 kmh NW 15.2 mph24.5 kmh 30.18 in1022.0 mb 0.00 in0.0 mm 0.00 in0.0 mm 0.00 in0.0 mm
03:57 AM 79.0°F26.1°C 55.8°F13.2°C 45% 9.8 mph WNW15.8 kmh WNW 16.8 mph27.0 kmh 30.18 in1022.0 mb 0.00 in0.0 mm 0.00 in0.0 mm 0.00 in0.0 mm
03:56 AM 79.0°F26.1°C 55.8°F13.2°C 45% 9.8 mph WNW15.8 kmh WNW 16.8 mph27.0 kmh 30.18 in1022.0 mb 0.00 in0.0 mm 0.00 in0.0 mm 0.00 in0.0 mm
03:55 AM 79.0°F26.1°C 55.8°F13.2°C 45% 10.7 mph 17.2 kmh 13.7 mph22.0 kmh 30.18 in1022.0 mb 0.00 in0.0 mm 0.00 in0.0 mm 0.00 in0.0 mm
03:54 AM 79.0°F26.1°C 55.8°F13.2°C 45% 12.1 mph NNW19.5 kmh NNW 15.9 mph25.6 kmh 30.18 in1022.0 mb 0.00 in0.0 mm 0.00 in0.0 mm 0.00 in0.0 mm
03:53 AM 79.0°F26.1°C 55.8°F13.2°C 45% 12.1 mph NNW19.5 kmh NNW 15.9 mph25.6 kmh 30.18 in1022.0 mb 0.00 in0.0 mm 0.00 in0.0 mm 0.00 in0.0 mm
03:52 AM 79.0°F26.1°C 55.8°F13.2°C 45% 10.7 mph 17.2 kmh 14.5 mph23.3 kmh 30.18 in1022.0 mb 0.00 in0.0 mm 0.00 in0.0 mm 0.00 in0.0 mm
03:51 AM 79.0°F26.1°C 55.8°F13.2°C 45% 10.7 mph NNW17.2 kmh NNW 16.8 mph27.0 kmh 30.18 in1022.0 mb 0.00 in0.0 mm 0.00 in0.0 mm 0.00 in0.0 mm
03:50 AM 79.0°F26.1°C 55.8°F13.2°C 45% 10.7 mph NNW17.2 kmh NNW 16.8 mph27.0 kmh 30.18 in1022.0 mb 0.00 in0.0 mm 0.00 in0.0 mm 0.00 in0.0 mm
03:49 AM 79.0°F26.1°C 55.8°F13.2°C 45% 15.9 mph 25.6 kmh 20.6 mph33.2 kmh 30.19 in1022.4 mb 0.00 in0.0 mm 0.00 in0.0 mm 0.00 in0.0 mm
03:48 AM 79.0°F26.1°C 55.8°F13.2°C 45% 15.9 mph 25.6 kmh 20.6 mph33.2 kmh 30.18 in1022.0 mb 0.00 in0.0 mm 0.00 in0.0 mm 0.00 in0.0 mm
03:47 AM 79.2°F26.2°C 56.0°F13.3°C 45% 11.4 mph SE18.3 kmh SE 19.7 mph31.7 kmh 30.19 in1022.4 mb 0.00 in0.0 mm 0.00 in0.0 mm 0.00 in0.0 mm
03:46 AM 79.2°F26.2°C 56.0°F13.3°C 45% 13.7 mph 22.0 kmh 17.5 mph28.2 kmh 30.18 in1022.0 mb 0.00 in0.0 mm 0.00 in0.0 mm 0.00 in0.0 mm
03:45 AM 79.2°F26.2°C 56.0°F13.3°C 45% 13.7 mph 22.0 kmh 17.5 mph28.2 kmh 30.19 in1022.4 mb 0.00 in0.0 mm 0.00 in0.0 mm 0.00 in0.0 mm
03:44 AM 79.2°F26.2°C 56.0°F13.3°C 45% 8.3 mph NW13.4 kmh NW 11.4 mph18.3 kmh 30.19 in1022.4 mb 0.00 in0.0 mm 0.00 in0.0 mm 0.00 in0.0 mm
03:43 AM 79.2°F26.2°C 56.0°F13.3°C 45% 9.8 mph 15.8 kmh 13.0 mph20.9 kmh 30.18 in1022.0 mb 0.00 in0.0 mm 0.00 in0.0 mm 0.00 in0.0 mm
03:42 AM 79.2°F26.2°C 56.0°F13.3°C 45% 9.8 mph 15.8 kmh 13.0 mph20.9 kmh 30.19 in1022.4 mb 0.00 in0.0 mm 0.00 in0.0 mm 0.00 in0.0 mm
03:41 AM 79.2°F26.2°C 56.0°F13.3°C 45% 13.0 mph NW20.9 kmh NW 15.2 mph24.5 kmh 30.18 in1022.0 mb 0.00 in0.0 mm 0.00 in0.0 mm 0.00 in0.0 mm
03:40 AM 79.2°F26.2°C 56.0°F13.3°C 45% 13.0 mph NW20.9 kmh NW 15.2 mph24.5 kmh 30.18 in1022.0 mb 0.00 in0.0 mm 0.00 in0.0 mm 0.00 in0.0 mm
03:39 AM 79.3°F26.3°C 56.1°F13.4°C 45% 8.3 mph NW13.4 kmh NW 12.1 mph19.5 kmh 30.18 in1022.0 mb 0.00 in0.0 mm 0.00 in0.0 mm 0.00 in0.0 mm
03:38 AM 79.3°F26.3°C 56.1°F13.4°C 45% 13.7 mph SE22.0 kmh SE 19.7 mph31.7 kmh 30.18 in1022.0 mb 0.00 in0.0 mm 0.00 in0.0 mm 0.00 in0.0 mm
03:37 AM 79.3°F26.3°C 56.1°F13.4°C 45% 13.7 mph SE22.0 kmh SE 19.7 mph31.7 kmh 30.18 in1022.0 mb 0.00 in0.0 mm 0.00 in0.0 mm 0.00 in0.0 mm
03:36 AM 79.3°F26.3°C 56.1°F13.4°C 45% 13.0 mph NW20.9 kmh NW 17.5 mph28.2 kmh 30.19 in1022.4 mb 0.00 in0.0 mm 0.00 in0.0 mm 0.00 in0.0 mm
03:35 AM 79.3°F26.3°C 56.1°F13.4°C 45% 14.5 mph 23.3 kmh 19.0 mph30.6 kmh 30.18 in1022.0 mb 0.00 in0.0 mm 0.00 in0.0 mm 0.00 in0.0 mm
03:34 AM 79.3°F26.3°C 56.1°F13.4°C 45% 14.5 mph 23.3 kmh 19.0 mph30.6 kmh 30.18 in1022.0 mb 0.00 in0.0 mm 0.00 in0.0 mm 0.00 in0.0 mm
03:33 AM 79.3°F26.3°C 56.1°F13.4°C 45% 11.4 mph WNW18.3 kmh WNW 13.7 mph22.0 kmh 30.18 in1022.0 mb 0.00 in0.0 mm 0.00 in0.0 mm 0.00 in0.0 mm
03:32 AM 79.3°F26.3°C 56.1°F13.4°C 45% 11.4 mph WNW18.3 kmh WNW 13.7 mph22.0 kmh 30.18 in1022.0 mb 0.00 in0.0 mm 0.00 in0.0 mm 0.00 in0.0 mm
03:31 AM 79.3°F26.3°C 56.1°F13.4°C 45% 11.4 mph WNW18.3 kmh WNW 14.5 mph23.3 kmh 30.18 in1022.0 mb 0.00 in0.0 mm 0.00 in0.0 mm 0.00 in0.0 mm
03:30 AM 79.3°F26.3°C 56.1°F13.4°C 45% 12.1 mph NW19.5 kmh NW 18.3 mph29.5 kmh 30.18 in1022.0 mb 0.00 in0.0 mm 0.00 in0.0 mm 0.00 in0.0 mm
03:29 AM 79.3°F26.3°C 56.1°F13.4°C 45% 12.1 mph NW19.5 kmh NW 18.3 mph29.5 kmh 30.18 in1022.0 mb 0.00 in0.0 mm 0.00 in0.0 mm 0.00 in0.0 mm
03:28 AM 79.3°F26.3°C 56.7°F13.7°C 46% 12.1 mph 19.5 kmh 16.8 mph27.0 kmh 30.18 in1022.0 mb 0.00 in0.0 mm 0.00 in0.0 mm 0.00 in0.0 mm
03:27 AM 79.3°F26.3°C 56.7°F13.7°C 46% 12.1 mph NW19.5 kmh NW 16.8 mph27.0 kmh 30.18 in1022.0 mb 0.00 in0.0 mm 0.00 in0.0 mm 0.00 in0.0 mm
03:26 AM 79.3°F26.3°C 56.7°F13.7°C 46% 12.1 mph NW19.5 kmh NW 16.8 mph27.0 kmh 30.18 in1022.0 mb 0.00 in0.0 mm 0.00 in0.0 mm 0.00 in0.0 mm
03:25 AM 79.3°F26.3°C 56.7°F13.7°C 46% 11.4 mph 18.3 kmh 15.9 mph25.6 kmh 30.18 in1022.0 mb 0.00 in0.0 mm 0.00 in0.0 mm 0.00 in0.0 mm
03:24 AM 79.3°F26.3°C 56.7°F13.7°C 46% 11.4 mph 18.3 kmh 15.9 mph25.6 kmh 30.18 in1022.0 mb 0.00 in0.0 mm 0.00 in0.0 mm 0.00 in0.0 mm
03:23 AM 79.3°F26.3°C 56.7°F13.7°C 46% 10.7 mph SE17.2 kmh SE 15.9 mph25.6 kmh 30.18 in1022.0 mb 0.00 in0.0 mm 0.00 in0.0 mm 0.00 in0.0 mm
03:22 AM 79.3°F26.3°C 56.7°F13.7°C 46% 9.8 mph 15.8 kmh 15.2 mph24.5 kmh 30.18 in1022.0 mb 0.00 in0.0 mm 0.00 in0.0 mm 0.00 in0.0 mm
03:21 AM 79.3°F26.3°C 56.7°F13.7°C 46% 9.8 mph 15.8 kmh 15.2 mph24.5 kmh 30.18 in1022.0 mb 0.00 in0.0 mm 0.00 in0.0 mm 0.00 in0.0 mm
03:20 AM 79.3°F26.3°C 56.7°F13.7°C 46% 7.6 mph 12.2 kmh 10.7 mph17.2 kmh 30.18 in1022.0 mb 0.00 in0.0 mm 0.00 in0.0 mm 0.00 in0.0 mm
03:19 AM 79.3°F26.3°C 56.7°F13.7°C 46% 9.8 mph WNW15.8 kmh WNW 14.5 mph23.3 kmh 30.18 in1022.0 mb 0.00 in0.0 mm 0.00 in0.0 mm 0.00 in0.0 mm
03:18 AM 79.3°F26.3°C 56.7°F13.7°C 46% 9.8 mph WNW15.8 kmh WNW 14.5 mph23.3 kmh 30.18 in1022.0 mb 0.00 in0.0 mm 0.00 in0.0 mm 0.00 in0.0 mm
03:17 AM 79.3°F26.3°C 56.7°F13.7°C 46% 12.1 mph NNW19.5 kmh NNW 15.9 mph25.6 kmh 30.18 in1022.0 mb 0.00 in0.0 mm 0.00 in0.0 mm 0.00 in0.0 mm
03:16 AM 79.3°F26.3°C 56.7°F13.7°C 46% 12.1 mph NNW19.5 kmh NNW 15.9 mph25.6 kmh 30.18 in1022.0 mb 0.00 in0.0 mm 0.00 in0.0 mm 0.00 in0.0 mm
03:15 AM 79.3°F26.3°C 57.3°F14.1°C 47% 6.9 mph NW11.1 kmh NW 11.4 mph18.3 kmh 30.18 in1022.0 mb 0.00 in0.0 mm 0.00 in0.0 mm 0.00 in0.0 mm
03:14 AM 79.3°F26.3°C 57.3°F14.1°C 47% 8.3 mph 13.4 kmh 11.4 mph18.3 kmh 30.19 in1022.4 mb 0.00 in0.0 mm 0.00 in0.0 mm 0.00 in0.0 mm
03:13 AM 79.3°F26.3°C 57.3°F14.1°C 47% 8.3 mph 13.4 kmh 11.4 mph18.3 kmh 30.18 in1022.0 mb 0.00 in0.0 mm 0.00 in0.0 mm 0.00 in0.0 mm
03:12 AM 79.3°F26.3°C 57.3°F14.1°C 47% 8.3 mph NW13.4 kmh NW 12.1 mph19.5 kmh 30.19 in1022.4 mb 0.00 in0.0 mm 0.00 in0.0 mm 0.00 in0.0 mm
03:11 AM 79.3°F26.3°C 56.7°F13.7°C 46% 14.5 mph WNW23.3 kmh WNW 15.9 mph25.6 kmh 30.18 in1022.0 mb 0.00 in0.0 mm 0.00 in0.0 mm 0.00 in0.0 mm
03:10 AM 79.3°F26.3°C 56.7°F13.7°C 46% 14.5 mph WNW23.3 kmh WNW 15.9 mph25.6 kmh 30.19 in1022.4 mb 0.00 in0.0 mm 0.00 in0.0 mm 0.00 in0.0 mm
03:09 AM 79.3°F26.3°C 56.7°F13.7°C 46% 10.7 mph NW17.2 kmh NW 14.5 mph23.3 kmh 30.18 in1022.0 mb 0.00 in0.0 mm 0.00 in0.0 mm 0.00 in0.0 mm
03:08 AM 79.3°F26.3°C 56.7°F13.7°C 46% 10.7 mph NW17.2 kmh NW 14.5 mph23.3 kmh 30.18 in1022.0 mb 0.00 in0.0 mm 0.00 in0.0 mm 0.00 in0.0 mm
03:07 AM 79.3°F26.3°C 57.3°F14.1°C 47% 15.9 mph NNW25.6 kmh NNW 21.3 mph34.3 kmh 30.18 in1022.0 mb 0.00 in0.0 mm 0.00 in0.0 mm 0.00 in0.0 mm
03:06 AM 79.3°F26.3°C 57.3°F14.1°C 47% 15.9 mph NNW25.6 kmh NNW 21.3 mph34.3 kmh 30.19 in1022.4 mb 0.00 in0.0 mm 0.00 in0.0 mm 0.00 in0.0 mm
03:05 AM 79.3°F26.3°C 57.3°F14.1°C 47% 15.9 mph NNW25.6 kmh NNW 21.3 mph34.3 kmh 30.18 in1022.0 mb 0.00 in0.0 mm 0.00 in0.0 mm 0.00 in0.0 mm
03:04 AM 79.3°F26.3°C 57.3°F14.1°C 47% 15.9 mph NNW25.6 kmh NNW 21.3 mph34.3 kmh 30.19 in1022.4 mb 0.00 in0.0 mm 0.00 in0.0 mm 0.00 in0.0 mm
03:03 AM 79.3°F26.3°C 57.3°F14.1°C 47% 15.9 mph NNW25.6 kmh NNW 21.3 mph34.3 kmh 30.18 in1022.0 mb 0.00 in0.0 mm 0.00 in0.0 mm 0.00 in0.0 mm
03:02 AM 79.3°F26.3°C 57.3°F14.1°C 47% 15.9 mph NNW25.6 kmh NNW 21.3 mph34.3 kmh 30.18 in1022.0 mb 0.00 in0.0 mm 0.00 in0.0 mm 0.00 in0.0 mm
03:01 AM 79.3°F26.3°C 57.3°F14.1°C 47% 15.9 mph NNW25.6 kmh NNW 21.3 mph34.3 kmh 30.18 in1022.0 mb 0.00 in0.0 mm 0.00 in0.0 mm 0.00 in0.0 mm
03:00 AM 79.3°F26.3°C 57.3°F14.1°C 47% 15.9 mph NNW25.6 kmh NNW 21.3 mph34.3 kmh 30.19 in1022.4 mb 0.00 in0.0 mm 0.00 in0.0 mm 0.00 in0.0 mm
02:59 AM 79.3°F26.3°C 57.3°F14.1°C 47% 13.7 mph WNW22.0 kmh WNW 19.0 mph30.6 kmh 30.18 in1022.0 mb 0.00 in0.0 mm 0.00 in0.0 mm 0.00 in0.0 mm
02:58 AM 79.3°F26.3°C 57.3°F14.1°C 47% 13.7 mph WNW22.0 kmh WNW 19.0 mph30.6 kmh 30.18 in1022.0 mb 0.00 in0.0 mm 0.00 in0.0 mm 0.00 in0.0 mm
02:57 AM 79.3°F26.3°C 57.3°F14.1°C 47% 13.7 mph NW22.0 kmh NW 18.3 mph29.5 kmh 30.19 in1022.4 mb 0.00 in0.0 mm 0.00 in0.0 mm 0.00 in0.0 mm
02:56 AM 79.3°F26.3°C 57.3°F14.1°C 47% 13.7 mph NW22.0 kmh NW 18.3 mph29.5 kmh 30.19 in1022.4 mb 0.00 in0.0 mm 0.00 in0.0 mm 0.00 in0.0 mm
02:55 AM 79.3°F26.3°C 57.3°F14.1°C 47% 13.7 mph NW22.0 kmh NW 17.5 mph28.2 kmh 30.18 in1022.0 mb 0.00 in0.0 mm 0.00 in0.0 mm 0.00 in0.0 mm
02:54 AM 79.7°F26.5°C 57.7°F14.3°C 47% 13.7 mph 22.0 kmh 19.0 mph30.6 kmh 30.19 in1022.4 mb 0.00 in0.0 mm 0.00 in0.0 mm 0.00 in0.0 mm
02:53 AM 79.7°F26.5°C 57.7°F14.3°C 47% 13.7 mph 22.0 kmh 19.0 mph30.6 kmh 30.18 in1022.0 mb 0.00 in0.0 mm 0.00 in0.0 mm 0.00 in0.0 mm
02:52 AM 79.3°F26.3°C 57.3°F14.1°C 47% 10.7 mph WNW17.2 kmh WNW 18.3 mph29.5 kmh 30.19 in1022.4 mb 0.00 in0.0 mm 0.00 in0.0 mm 0.00 in0.0 mm
02:51 AM 79.3°F26.3°C 57.3°F14.1°C 47% 11.4 mph NW18.3 kmh NW 15.2 mph24.5 kmh 30.18 in1022.0 mb 0.00 in0.0 mm 0.00 in0.0 mm 0.00 in0.0 mm
02:50 AM 79.3°F26.3°C 57.3°F14.1°C 47% 11.4 mph NW18.3 kmh NW 15.2 mph24.5 kmh 30.19 in1022.4 mb 0.00 in0.0 mm 0.00 in0.0 mm 0.00 in0.0 mm
02:49 AM 79.3°F26.3°C 57.3°F14.1°C 47% 13.0 mph 20.9 kmh 16.8 mph27.0 kmh 30.19 in1022.4 mb 0.00 in0.0 mm 0.00 in0.0 mm 0.00 in0.0 mm
02:48 AM 79.3°F26.3°C 57.3°F14.1°C 47% 13.0 mph 20.9 kmh 16.8 mph27.0 kmh 30.19 in1022.4 mb 0.00 in0.0 mm 0.00 in0.0 mm 0.00 in0.0 mm
02:47 AM 79.3°F26.3°C 57.9°F14.4°C 48% 10.7 mph 17.2 kmh 15.2 mph24.5 kmh 30.19 in1022.4 mb 0.00 in0.0 mm 0.00 in0.0 mm 0.00 in0.0 mm
02:46 AM 79.3°F26.3°C 57.9°F14.4°C 48% 13.0 mph NW20.9 kmh NW 16.8 mph27.0 kmh 30.19 in1022.4 mb 0.00 in0.0 mm 0.00 in0.0 mm 0.00 in0.0 mm
02:45 AM 79.3°F26.3°C 57.9°F14.4°C 48% 13.0 mph NW20.9 kmh NW 16.8 mph27.0 kmh 30.19 in1022.4 mb 0.00 in0.0 mm 0.00 in0.0 mm 0.00 in0.0 mm
02:44 AM 79.3°F26.3°C 57.9°F14.4°C 48% 12.1 mph 19.5 kmh 15.2 mph24.5 kmh 30.19 in1022.4 mb 0.00 in0.0 mm 0.00 in0.0 mm 0.00 in0.0 mm
02:43 AM 79.3°F26.3°C 57.9°F14.4°C 48% 12.1 mph NNW19.5 kmh NNW 16.8 mph27.0 kmh 30.19 in1022.4 mb 0.00 in0.0 mm 0.00 in0.0 mm 0.00 in0.0 mm
02:42 AM 79.3°F26.3°C 57.9°F14.4°C 48% 12.1 mph NNW19.5 kmh NNW 16.8 mph27.0 kmh 30.19 in1022.4 mb 0.00 in0.0 mm 0.00 in0.0 mm 0.00 in0.0 mm
02:41 AM 79.3°F26.3°C 57.9°F14.4°C 48% 7.6 mph SE12.2 kmh SE 10.7 mph17.2 kmh 30.19 in1022.4 mb 0.00 in0.0 mm 0.00 in0.0 mm 0.00 in0.0 mm
02:40 AM 79.3°F26.3°C 57.9°F14.4°C 48% 7.6 mph SE12.2 kmh SE 10.7 mph17.2 kmh 30.19 in1022.4 mb 0.00 in0.0 mm 0.00 in0.0 mm 0.00 in0.0 mm
02:39 AM 79.5°F26.4°C 58.1°F14.5°C 48% 9.8 mph SE15.8 kmh SE 14.5 mph23.3 kmh 30.19 in1022.4 mb 0.00 in0.0 mm 0.00 in0.0 mm 0.00 in0.0 mm
02:38 AM 79.7°F26.5°C 58.3°F14.6°C 48% 12.1 mph 19.5 kmh 14.5 mph23.3 kmh 30.19 in1022.4 mb 0.00 in0.0 mm 0.00 in0.0 mm 0.00 in0.0 mm
02:37 AM 79.5°F26.4°C 58.1°F14.5°C 48% 10.7 mph NW17.2 kmh NW 17.5 mph28.2 kmh 30.19 in1022.4 mb 0.00 in0.0 mm 0.00 in0.0 mm 0.00 in0.0 mm
02:36 AM 79.5°F26.4°C 58.1°F14.5°C 48% 10.7 mph NW17.2 kmh NW 13.7 mph22.0 kmh 30.19 in1022.4 mb 0.00 in0.0 mm 0.00 in0.0 mm 0.00 in0.0 mm
02:35 AM 79.7°F26.5°C 58.3°F14.6°C 48% 11.4 mph 18.3 kmh 15.2 mph24.5 kmh 30.19 in1022.4 mb 0.00 in0.0 mm 0.00 in0.0 mm 0.00 in0.0 mm
02:34 AM 79.7°F26.5°C 58.3°F14.6°C 48% 11.4 mph 18.3 kmh 15.2 mph24.5 kmh 30.19 in1022.4 mb 0.00 in0.0 mm 0.00 in0.0 mm 0.00 in0.0 mm
02:33 AM 79.7°F26.5°C 58.8°F14.9°C 49% 10.7 mph 17.2 kmh 14.5 mph23.3 kmh 30.19 in1022.4 mb 0.00 in0.0 mm 0.00 in0.0 mm 0.00 in0.0 mm
02:32 AM 79.7°F26.5°C 58.8°F14.9°C 49% 10.7 mph 17.2 kmh 14.5 mph23.3 kmh 30.19 in1022.4 mb 0.00 in0.0 mm 0.00 in0.0 mm 0.00 in0.0 mm
02:31 AM 79.7°F26.5°C 58.8°F14.9°C 49% 9.2 mph WNW14.8 kmh WNW 13.7 mph22.0 kmh 30.19 in1022.4 mb 0.00 in0.0 mm 0.00 in0.0 mm 0.00 in0.0 mm
02:30 AM 79.7°F26.5°C 58.8°F14.9°C 49% 7.6 mph NNW12.2 kmh NNW 11.4 mph18.3 kmh 30.19 in1022.4 mb 0.00 in0.0 mm 0.00 in0.0 mm 0.00 in0.0 mm
02:29 AM 79.7°F26.5°C 58.8°F14.9°C 49% 7.6 mph NNW12.2 kmh NNW 11.4 mph18.3 kmh 30.19 in1022.4 mb 0.00 in0.0 mm 0.00 in0.0 mm 0.00 in0.0 mm
02:28 AM 79.9°F26.6°C 59.0°F15.0°C 49% 7.6 mph NNW12.2 kmh NNW 11.4 mph18.3 kmh 30.19 in1022.4 mb 0.00 in0.0 mm 0.00 in0.0 mm 0.00 in0.0 mm
02:27 AM 79.9°F26.6°C 59.0°F15.0°C 49% 10.7 mph NNW17.2 kmh NNW 15.9 mph25.6 kmh 30.19 in1022.4 mb 0.00 in0.0 mm 0.00 in0.0 mm 0.00 in0.0 mm
02:26 AM 79.9°F26.6°C 59.0°F15.0°C 49% 10.7 mph NNW17.2 kmh NNW 15.9 mph25.6 kmh 30.19 in1022.4 mb 0.00 in0.0 mm 0.00 in0.0 mm 0.00 in0.0 mm
02:25 AM 79.9°F26.6°C 59.0°F15.0°C 49% 12.1 mph 19.5 kmh 14.5 mph23.3 kmh 30.19 in1022.4 mb 0.00 in0.0 mm 0.00 in0.0 mm 0.00 in0.0 mm
02:24 AM 79.9°F26.6°C 59.0°F15.0°C 49% 12.1 mph 19.5 kmh 14.5 mph23.3 kmh 30.19 in1022.4 mb 0.00 in0.0 mm 0.00 in0.0 mm 0.00 in0.0 mm
02:23 AM 80.1°F26.7°C 59.2°F15.1°C 49% 10.7 mph 17.2 kmh 13.0 mph20.9 kmh 30.19 in1022.4 mb 0.00 in0.0 mm 0.00 in0.0 mm 0.00 in0.0 mm
02:22 AM 80.1°F26.7°C 59.2°F15.1°C 49% 11.4 mph 18.3 kmh 15.9 mph25.6 kmh 30.19 in1022.4 mb 0.00 in0.0 mm 0.00 in0.0 mm 0.00 in0.0 mm
02:21 AM 80.1°F26.7°C 59.2°F15.1°C 49% 11.4 mph 18.3 kmh 15.9 mph25.6 kmh 30.19 in1022.4 mb 0.00 in0.0 mm 0.00 in0.0 mm 0.00 in0.0 mm
02:20 AM 80.2°F26.8°C 59.3°F15.2°C 49% 9.2 mph NNE14.8 kmh NNE 13.0 mph20.9 kmh 30.19 in1022.4 mb 0.00 in0.0 mm 0.00 in0.0 mm 0.00 in0.0 mm
02:19 AM 80.2°F26.8°C 59.3°F15.2°C 49% 13.0 mph NNW20.9 kmh NNW 19.7 mph31.7 kmh 30.19 in1022.4 mb 0.00 in0.0 mm 0.00 in0.0 mm 0.00 in0.0 mm
02:18 AM 80.2°F26.8°C 59.3°F15.2°C 49% 13.0 mph NNW20.9 kmh NNW 19.7 mph31.7 kmh 30.19 in1022.4 mb 0.00 in0.0 mm 0.00 in0.0 mm 0.00 in0.0 mm
02:17 AM 80.1°F26.7°C 59.2°F15.1°C 49% 12.1 mph NW19.5 kmh NW 15.2 mph24.5 kmh 30.19 in1022.4 mb 0.00 in0.0 mm 0.00 in0.0 mm 0.00 in0.0 mm
02:16 AM 80.1°F26.7°C 59.2°F15.1°C 49% 12.1 mph NW19.5 kmh NW 15.2 mph24.5 kmh 30.19 in1022.4 mb 0.00 in0.0 mm 0.00 in0.0 mm 0.00 in0.0 mm
02:15 AM 80.2°F26.8°C 59.3°F15.2°C 49% 8.3 mph NW13.4 kmh NW 11.4 mph18.3 kmh 30.19 in1022.4 mb 0.00 in0.0 mm 0.00 in0.0 mm 0.00 in0.0 mm
02:14 AM 80.1°F26.7°C 59.2°F15.1°C 49% 13.7 mph NW22.0 kmh NW 16.8 mph27.0 kmh 30.19 in1022.4 mb 0.00 in0.0 mm 0.00 in0.0 mm 0.00 in0.0 mm
02:13 AM 80.1°F26.7°C 59.2°F15.1°C 49% 13.7 mph NW22.0 kmh NW 16.8 mph27.0 kmh 30.19 in1022.4 mb 0.00 in0.0 mm 0.00 in0.0 mm 0.00 in0.0 mm
02:12 AM 80.1°F26.7°C 59.2°F15.1°C 49% 10.7 mph NW17.2 kmh NW 16.8 mph27.0 kmh 30.19 in1022.4 mb 0.00 in0.0 mm 0.00 in0.0 mm 0.00 in0.0 mm
02:11 AM 80.1°F26.7°C 59.2°F15.1°C 49% 10.7 mph NNW17.2 kmh NNW 13.7 mph22.0 kmh 30.19 in1022.4 mb 0.00 in0.0 mm 0.00 in0.0 mm 0.00 in0.0 mm
02:10 AM 80.1°F26.7°C 59.2°F15.1°C 49% 10.7 mph NNW17.2 kmh NNW 13.7 mph22.0 kmh 30.19 in1022.4 mb 0.00 in0.0 mm 0.00 in0.0 mm 0.00 in0.0 mm
02:09 AM 80.1°F26.7°C 59.2°F15.1°C 49% 6.9 mph NNW11.1 kmh NNW 9.8 mph15.8 kmh 30.19 in1022.4 mb 0.00 in0.0 mm 0.00 in0.0 mm 0.00 in0.0 mm
02:08 AM 80.1°F26.7°C 59.2°F15.1°C 49% 6.9 mph NNW11.1 kmh NNW 9.8 mph15.8 kmh 30.19 in1022.4 mb 0.00 in0.0 mm 0.00 in0.0 mm 0.00 in0.0 mm
02:07 AM 80.1°F26.7°C 59.7°F15.4°C 50% 9.8 mph 15.8 kmh 13.7 mph22.0 kmh 30.19 in1022.4 mb 0.00 in0.0 mm 0.00 in0.0 mm 0.00 in0.0 mm
02:06 AM 80.1°F26.7°C 59.7°F15.4°C 50% 11.4 mph 18.3 kmh 19.0 mph30.6 kmh 30.19 in1022.4 mb 0.00 in0.0 mm 0.00 in0.0 mm 0.00 in0.0 mm
02:05 AM 80.1°F26.7°C 59.7°F15.4°C 50% 11.4 mph 18.3 kmh 19.0 mph30.6 kmh 30.19 in1022.4 mb 0.00 in0.0 mm 0.00 in0.0 mm 0.00 in0.0 mm
02:04 AM 80.2°F26.8°C 59.9°F15.5°C 50% 8.3 mph WNW13.4 kmh WNW 18.3 mph29.5 kmh 30.19 in1022.4 mb 0.00 in0.0 mm 0.00 in0.0 mm 0.00 in0.0 mm
02:03 AM 80.2°F26.8°C 59.9°F15.5°C 50% 10.7 mph NW17.2 kmh NW 16.8 mph27.0 kmh 30.19 in1022.4 mb 0.00 in0.0 mm 0.00 in0.0 mm 0.00 in0.0 mm
02:02 AM 80.2°F26.8°C 59.9°F15.5°C 50% 10.7 mph NW17.2 kmh NW 16.8 mph27.0 kmh 30.19 in1022.4 mb 0.00 in0.0 mm 0.00 in0.0 mm 0.00 in0.0 mm
02:01 AM 80.2°F26.8°C 59.9°F15.5°C 50% 13.7 mph WNW22.0 kmh WNW 19.0 mph30.6 kmh 30.19 in1022.4 mb 0.00 in0.0 mm 0.00 in0.0 mm 0.00 in0.0 mm
02:00 AM 80.2°F26.8°C 59.9°F15.5°C 50% 13.7 mph WNW22.0 kmh WNW 19.0 mph30.6 kmh 30.19 in1022.4 mb 0.00 in0.0 mm 0.00 in0.0 mm 0.00 in0.0 mm
01:59 AM 80.4°F26.9°C 59.5°F15.3°C 49% 9.2 mph 14.8 kmh 15.2 mph24.5 kmh 30.19 in1022.4 mb 0.00 in0.0 mm 0.00 in0.0 mm 0.00 in0.0 mm
01:58 AM 80.4°F26.9°C 59.5°F15.3°C 49% 8.3 mph WNW13.4 kmh WNW 15.2 mph24.5 kmh 30.19 in1022.4 mb 0.00 in0.0 mm 0.00 in0.0 mm 0.00 in0.0 mm
01:57 AM 80.4°F26.9°C 59.5°F15.3°C 49% 8.3 mph WNW13.4 kmh WNW 15.2 mph24.5 kmh 30.19 in1022.4 mb 0.00 in0.0 mm 0.00 in0.0 mm 0.00 in0.0 mm
01:56 AM 80.4°F26.9°C 59.5°F15.3°C 49% 11.4 mph NW18.3 kmh NW 13.7 mph22.0 kmh 30.19 in1022.4 mb 0.00 in0.0 mm 0.00 in0.0 mm 0.00 in0.0 mm
01:55 AM 80.4°F26.9°C 59.5°F15.3°C 49% 9.2 mph 14.8 kmh 12.1 mph19.5 kmh 30.19 in1022.4 mb 0.00 in0.0 mm 0.00 in0.0 mm 0.00 in0.0 mm
01:54 AM 80.4°F26.9°C 59.5°F15.3°C 49% 9.2 mph 14.8 kmh 12.1 mph19.5 kmh 30.19 in1022.4 mb 0.00 in0.0 mm 0.00 in0.0 mm 0.00 in0.0 mm
01:53 AM 80.4°F26.9°C 59.5°F15.3°C 49% 10.7 mph 17.2 kmh 13.7 mph22.0 kmh 30.19 in1022.4 mb 0.00 in0.0 mm 0.00 in0.0 mm 0.00 in0.0 mm
01:52 AM 80.4°F26.9°C 60.1°F15.6°C 50% 10.7 mph 17.2 kmh 13.7 mph22.0 kmh 30.19 in1022.4 mb 0.00 in0.0 mm 0.00 in0.0 mm 0.00 in0.0 mm
01:51 AM 80.4°F26.9°C 60.1°F15.6°C 50% 9.2 mph 14.8 kmh 12.1 mph19.5 kmh 30.19 in1022.4 mb 0.00 in0.0 mm 0.00 in0.0 mm 0.00 in0.0 mm
01:50 AM 80.4°F26.9°C 60.1°F15.6°C 50% 10.7 mph WNW17.2 kmh WNW 13.7 mph22.0 kmh 30.19 in1022.4 mb 0.00 in0.0 mm 0.00 in0.0 mm 0.00 in0.0 mm
01:49 AM 80.4°F26.9°C 60.1°F15.6°C 50% 10.7 mph WNW17.2 kmh WNW 13.7 mph22.0 kmh 30.19 in1022.4 mb 0.00 in0.0 mm 0.00 in0.0 mm 0.00 in0.0 mm
01:48 AM 80.4°F26.9°C 60.1°F15.6°C 50% 13.0 mph SE20.9 kmh SE 15.9 mph25.6 kmh 30.19 in1022.4 mb 0.00 in0.0 mm 0.00 in0.0 mm 0.00 in0.0 mm
01:47 AM 80.6°F27.0°C 59.7°F15.4°C 49% 9.2 mph NW14.8 kmh NW 11.4 mph18.3 kmh 30.19 in1022.4 mb 0.00 in0.0 mm 0.00 in0.0 mm 0.00 in0.0 mm
01:46 AM 80.6°F27.0°C 59.7°F15.4°C 49% 9.2 mph NW14.8 kmh NW 11.4 mph18.3 kmh 30.19 in1022.4 mb 0.00 in0.0 mm 0.00 in0.0 mm 0.00 in0.0 mm
01:45 AM 80.6°F27.0°C 59.7°F15.4°C 49% 11.4 mph NW18.3 kmh NW 14.5 mph23.3 kmh 30.20 in1022.7 mb 0.00 in0.0 mm 0.00 in0.0 mm 0.00 in0.0 mm
01:44 AM 80.6°F27.0°C 59.7°F15.4°C 49% 11.4 mph NW18.3 kmh NW 14.5 mph23.3 kmh 30.20 in1022.7 mb 0.00 in0.0 mm 0.00 in0.0 mm 0.00 in0.0 mm
01:43 AM 80.6°F27.0°C 59.7°F15.4°C 49% 13.0 mph NW20.9 kmh NW 15.9 mph25.6 kmh 30.20 in1022.7 mb 0.00 in0.0 mm 0.00 in0.0 mm 0.00 in0.0 mm
01:42 AM 80.6°F27.0°C 59.7°F15.4°C 49% 12.1 mph SE19.5 kmh SE 18.3 mph29.5 kmh 30.19 in1022.4 mb 0.00 in0.0 mm 0.00 in0.0 mm 0.00 in0.0 mm
01:41 AM 80.6°F27.0°C 59.7°F15.4°C 49% 12.1 mph SE19.5 kmh SE 18.3 mph29.5 kmh 30.19 in1022.4 mb 0.00 in0.0 mm 0.00 in0.0 mm 0.00 in0.0 mm
01:40 AM 80.6°F27.0°C 59.7°F15.4°C 49% 11.4 mph 18.3 kmh 13.0 mph20.9 kmh 30.19 in1022.4 mb 0.00 in0.0 mm 0.00 in0.0 mm 0.00 in0.0 mm
01:39 AM 80.6°F27.0°C 59.7°F15.4°C 49% 9.2 mph NW14.8 kmh NW 13.0 mph20.9 kmh 30.19 in1022.4 mb 0.00 in0.0 mm 0.00 in0.0 mm 0.00 in0.0 mm
01:38 AM 80.6°F27.0°C 59.7°F15.4°C 49% 9.2 mph NW14.8 kmh NW 13.0 mph20.9 kmh 30.19 in1022.4 mb 0.00 in0.0 mm 0.00 in0.0 mm 0.00 in0.0 mm
01:37 AM 80.6°F27.0°C 59.7°F15.4°C 49% 11.4 mph NNW18.3 kmh NNW 16.8 mph27.0 kmh 30.19 in1022.4 mb 0.00 in0.0 mm 0.00 in0.0 mm 0.00 in0.0 mm
01:36 AM 80.6°F27.0°C 59.7°F15.4°C 49% 11.4 mph NNW18.3 kmh NNW 16.8 mph27.0 kmh 30.19 in1022.4 mb 0.00 in0.0 mm 0.00 in0.0 mm 0.00 in0.0 mm
01:35 AM 80.6°F27.0°C 60.2°F15.7°C 50% 7.6 mph NW12.2 kmh NW 13.7 mph22.0 kmh 30.20 in1022.7 mb 0.00 in0.0 mm 0.00 in0.0 mm 0.00 in0.0 mm
01:34 AM 80.6°F27.0°C 60.2°F15.7°C 50% 7.6 mph NW12.2 kmh NW 13.7 mph22.0 kmh 30.19 in1022.4 mb 0.00 in0.0 mm 0.00 in0.0 mm 0.00 in0.0 mm
01:33 AM 80.6°F27.0°C 60.2°F15.7°C 50% 8.3 mph WNW13.4 kmh WNW 13.7 mph22.0 kmh 30.19 in1022.4 mb 0.00 in0.0 mm 0.00 in0.0 mm 0.00 in0.0 mm
01:32 AM 80.6°F27.0°C 60.2°F15.7°C 50% 8.3 mph WNW13.4 kmh WNW 13.7 mph22.0 kmh 30.19 in1022.4 mb 0.00 in0.0 mm 0.00 in0.0 mm 0.00 in0.0 mm
01:31 AM 80.6°F27.0°C 60.2°F15.7°C 50% 11.4 mph NW18.3 kmh NW 15.9 mph25.6 kmh 30.19 in1022.4 mb 0.00 in0.0 mm 0.00 in0.0 mm 0.00 in0.0 mm
01:30 AM 80.6°F27.0°C 60.2°F15.7°C 50% 11.4 mph NW18.3 kmh NW 15.9 mph25.6 kmh 30.19 in1022.4 mb 0.00 in0.0 mm 0.00 in0.0 mm 0.00 in0.0 mm
01:29 AM 80.6°F27.0°C 60.2°F15.7°C 50% 10.7 mph NW17.2 kmh NW 14.5 mph23.3 kmh 30.19 in1022.4 mb 0.00 in0.0 mm 0.00 in0.0 mm 0.00 in0.0 mm
01:28 AM 80.6°F27.0°C 60.2°F15.7°C 50% 10.7 mph NW17.2 kmh NW 14.5 mph23.3 kmh 30.19 in1022.4 mb 0.00 in0.0 mm 0.00 in0.0 mm 0.00 in0.0 mm
01:27 AM 80.6°F27.0°C 60.2°F15.7°C 50% 8.3 mph NW13.4 kmh NW 13.0 mph20.9 kmh 30.19 in1022.4 mb 0.00 in0.0 mm 0.00 in0.0 mm 0.00 in0.0 mm
01:26 AM 80.6°F27.0°C 60.2°F15.7°C 50% 10.7 mph NW17.2 kmh NW 16.8 mph27.0 kmh 30.19 in1022.4 mb 0.00 in0.0 mm 0.00 in0.0 mm 0.00 in0.0 mm
01:25 AM 80.6°F27.0°C 60.2°F15.7°C 50% 10.7 mph NW17.2 kmh NW 16.8 mph27.0 kmh 30.19 in1022.4 mb 0.00 in0.0 mm 0.00 in0.0 mm 0.00 in0.0 mm
01:24 AM 80.8°F27.1°C 60.4°F15.8°C 50% 13.7 mph NNW22.0 kmh NNW 19.7 mph31.7 kmh 30.19 in1022.4 mb 0.00 in0.0 mm 0.00 in0.0 mm 0.00 in0.0 mm
01:23 AM 80.8°F27.1°C 60.4°F15.8°C 50% 8.3 mph 13.4 kmh 13.0 mph20.9 kmh 30.19 in1022.4 mb 0.00 in0.0 mm 0.00 in0.0 mm 0.00 in0.0 mm
01:22 AM 80.8°F27.1°C 60.4°F15.8°C 50% 8.3 mph 13.4 kmh 13.0 mph20.9 kmh 30.19 in1022.4 mb 0.00 in0.0 mm 0.00 in0.0 mm 0.00 in0.0 mm
01:21 AM 80.8°F27.1°C 60.4°F15.8°C 50% 11.4 mph NW18.3 kmh NW 15.9 mph25.6 kmh 30.19 in1022.4 mb 0.00 in0.0 mm 0.00 in0.0 mm 0.00 in0.0 mm
01:20 AM 80.8°F27.1°C 60.4°F15.8°C 50% 5.4 mph NW8.7 kmh NW 7.6 mph12.2 kmh 30.19 in1022.4 mb 0.00 in0.0 mm 0.00 in0.0 mm 0.00 in0.0 mm
01:19 AM 80.8°F27.1°C 60.4°F15.8°C 50% 9.8 mph NNW15.8 kmh NNW 15.2 mph24.5 kmh 30.19 in1022.4 mb 0.00 in0.0 mm 0.00 in0.0 mm 0.00 in0.0 mm
01:18 AM 80.8°F27.1°C 60.4°F15.8°C 50% 13.0 mph NW20.9 kmh NW 17.5 mph28.2 kmh 30.19 in1022.4 mb 0.00 in0.0 mm 0.00 in0.0 mm 0.00 in0.0 mm
01:17 AM 80.8°F27.1°C 60.4°F15.8°C 50% 12.1 mph NW19.5 kmh NW 15.9 mph25.6 kmh 30.19 in1022.4 mb 0.00 in0.0 mm 0.00 in0.0 mm 0.00 in0.0 mm
01:16 AM 80.6°F27.0°C 60.2°F15.7°C 50% 11.4 mph NW18.3 kmh NW 14.5 mph23.3 kmh 30.19 in1022.4 mb 0.00 in0.0 mm 0.00 in0.0 mm 0.00 in0.0 mm
01:15 AM 80.8°F27.1°C 60.4°F15.8°C 50% 13.0 mph 20.9 kmh 17.5 mph28.2 kmh 30.19 in1022.4 mb 0.00 in0.0 mm 0.00 in0.0 mm 0.00 in0.0 mm
01:14 AM 80.8°F27.1°C 60.4°F15.8°C 50% 13.0 mph 20.9 kmh 17.5 mph28.2 kmh 30.19 in1022.4 mb 0.00 in0.0 mm 0.00 in0.0 mm 0.00 in0.0 mm
01:13 AM 80.8°F27.1°C 60.4°F15.8°C 50% 10.7 mph NW17.2 kmh NW 15.9 mph25.6 kmh 30.19 in1022.4 mb 0.00 in0.0 mm 0.00 in0.0 mm 0.00 in0.0 mm
01:12 AM 80.8°F27.1°C 60.4°F15.8°C 50% 7.6 mph WNW12.2 kmh WNW 13.0 mph20.9 kmh 30.19 in1022.4 mb 0.00 in0.0 mm 0.00 in0.0 mm 0.00 in0.0 mm
01:11 AM 80.8°F27.1°C 60.4°F15.8°C 50% 11.4 mph NW18.3 kmh NW 15.9 mph25.6 kmh 30.19 in1022.4 mb 0.00 in0.0 mm 0.00 in0.0 mm 0.00 in0.0 mm
01:10 AM 80.8°F27.1°C 60.4°F15.8°C 50% 10.7 mph 17.2 kmh 15.9 mph25.6 kmh 30.19 in1022.4 mb 0.00 in0.0 mm 0.00 in0.0 mm 0.00 in0.0 mm
01:09 AM 80.8°F27.1°C 60.4°F15.8°C 50% 9.8 mph 15.8 kmh 15.2 mph24.5 kmh 30.19 in1022.4 mb 0.00 in0.0 mm 0.00 in0.0 mm 0.00 in0.0 mm
01:08 AM 80.8°F27.1°C 60.4°F15.8°C 50% 11.4 mph 18.3 kmh 15.2 mph24.5 kmh 30.19 in1022.4 mb 0.00 in0.0 mm 0.00 in0.0 mm 0.00 in0.0 mm
01:07 AM 81.0°F27.2°C 60.0°F15.6°C 49% 9.8 mph NW15.8 kmh NW 15.2 mph24.5 kmh 30.19 in1022.4 mb 0.00 in0.0 mm 0.00 in0.0 mm 0.00 in0.0 mm
01:06 AM 81.0°F27.2°C 60.0°F15.6°C 49% 9.8 mph NW15.8 kmh NW 15.2 mph24.5 kmh 30.19 in1022.4 mb 0.00 in0.0 mm 0.00 in0.0 mm 0.00 in0.0 mm
01:05 AM 81.0°F27.2°C 60.0°F15.6°C 49% 9.8 mph NW15.8 kmh NW 15.2 mph24.5 kmh 30.20 in1022.7 mb 0.00 in0.0 mm 0.00 in0.0 mm 0.00 in0.0 mm
01:04 AM 81.0°F27.2°C 60.0°F15.6°C 49% 9.8 mph NW15.8 kmh NW 15.2 mph24.5 kmh 30.20 in1022.7 mb 0.00 in0.0 mm 0.00 in0.0 mm 0.00 in0.0 mm
01:03 AM 81.0°F27.2°C 60.0°F15.6°C 49% 9.8 mph NW15.8 kmh NW 15.2 mph24.5 kmh 30.20 in1022.7 mb 0.00 in0.0 mm 0.00 in0.0 mm 0.00 in0.0 mm
01:02 AM 81.0°F27.2°C 60.0°F15.6°C 49% 9.8 mph NW15.8 kmh NW 15.2 mph24.5 kmh 30.20 in1022.7 mb 0.00 in0.0 mm 0.00 in0.0 mm 0.00 in0.0 mm
01:01 AM 81.0°F27.2°C 60.0°F15.6°C 49% 9.8 mph NW15.8 kmh NW 15.2 mph24.5 kmh 30.20 in1022.7 mb 0.00 in0.0 mm 0.00 in0.0 mm 0.00 in0.0 mm
01:00 AM 81.0°F27.2°C 60.0°F15.6°C 49% 9.8 mph NW15.8 kmh NW 15.2 mph24.5 kmh 30.19 in1022.4 mb 0.00 in0.0 mm 0.00 in0.0 mm 0.00 in0.0 mm
12:59 AM 81.0°F27.2°C 60.0°F15.6°C 49% 9.2 mph NW14.8 kmh NW 11.4 mph18.3 kmh 30.20 in1022.7 mb 0.00 in0.0 mm 0.00 in0.0 mm 0.00 in0.0 mm
12:58 AM 81.0°F27.2°C 60.0°F15.6°C 49% 9.8 mph SE15.8 kmh SE 13.7 mph22.0 kmh 30.20 in1022.7 mb 0.00 in0.0 mm 0.00 in0.0 mm 0.00 in0.0 mm
12:57 AM 81.0°F27.2°C 60.0°F15.6°C 49% 9.8 mph SE15.8 kmh SE 13.7 mph22.0 kmh 30.20 in1022.7 mb 0.00 in0.0 mm 0.00 in0.0 mm 0.00 in0.0 mm
12:56 AM 81.0°F27.2°C 60.6°F15.9°C 50% 10.7 mph 17.2 kmh 15.9 mph25.6 kmh 30.20 in1022.7 mb 0.00 in0.0 mm 0.00 in0.0 mm 0.00 in0.0 mm
12:55 AM 81.1°F27.3°C 60.7°F15.9°C 50% 9.8 mph 15.8 kmh 13.7 mph22.0 kmh 30.20 in1022.7 mb 0.00 in0.0 mm 0.00 in0.0 mm 0.00 in0.0 mm
12:54 AM 81.1°F27.3°C 60.7°F15.9°C 50% 8.3 mph NW13.4 kmh NW 13.0 mph20.9 kmh 30.20 in1022.7 mb 0.00 in0.0 mm 0.00 in0.0 mm 0.00 in0.0 mm
12:53 AM 81.1°F27.3°C 60.7°F15.9°C 50% 9.8 mph 15.8 kmh 13.7 mph22.0 kmh 30.20 in1022.7 mb 0.00 in0.0 mm 0.00 in0.0 mm 0.00 in0.0 mm
12:52 AM 81.1°F27.3°C 60.7°F15.9°C 50% 9.8 mph 15.8 kmh 13.7 mph22.0 kmh 30.20 in1022.7 mb 0.00 in0.0 mm 0.00 in0.0 mm 0.00 in0.0 mm
12:51 AM 81.1°F27.3°C 60.7°F15.9°C 50% 9.8 mph 15.8 kmh 13.0 mph20.9 kmh 30.19 in1022.4 mb 0.00 in0.0 mm 0.00 in0.0 mm 0.00 in0.0 mm
12:50 AM 81.1°F27.3°C 60.7°F15.9°C 50% 9.8 mph 15.8 kmh 14.5 mph23.3 kmh 30.19 in1022.4 mb 0.00 in0.0 mm 0.00 in0.0 mm 0.00 in0.0 mm
12:49 AM 81.1°F27.3°C 60.7°F15.9°C 50% 9.8 mph 15.8 kmh 14.5 mph23.3 kmh 30.19 in1022.4 mb 0.00 in0.0 mm 0.00 in0.0 mm 0.00 in0.0 mm
12:48 AM 81.1°F27.3°C 60.7°F15.9°C 50% 11.4 mph NNE18.3 kmh NNE 15.2 mph24.5 kmh 30.19 in1022.4 mb 0.00 in0.0 mm 0.00 in0.0 mm 0.00 in0.0 mm
12:47 AM 81.1°F27.3°C 60.7°F15.9°C 50% 9.8 mph NW15.8 kmh NW 14.5 mph23.3 kmh 30.20 in1022.7 mb 0.00 in0.0 mm 0.00 in0.0 mm 0.00 in0.0 mm
12:46 AM 81.1°F27.3°C 60.7°F15.9°C 50% 9.8 mph NW15.8 kmh NW 14.5 mph23.3 kmh 30.20 in1022.7 mb 0.00 in0.0 mm 0.00 in0.0 mm 0.00 in0.0 mm
12:45 AM 81.1°F27.3°C 60.1°F15.6°C 49% 6.9 mph NW11.1 kmh NW 11.4 mph18.3 kmh 30.20 in1022.7 mb 0.00 in0.0 mm 0.00 in0.0 mm 0.00 in0.0 mm
12:44 AM 81.1°F27.3°C 60.1°F15.6°C 49% 6.9 mph NW11.1 kmh NW 11.4 mph18.3 kmh 30.20 in1022.7 mb 0.00 in0.0 mm 0.00 in0.0 mm 0.00 in0.0 mm
12:43 AM 81.3°F27.4°C 60.3°F15.7°C 49% 9.2 mph NW14.8 kmh NW 13.7 mph22.0 kmh 30.20 in1022.7 mb 0.00 in0.0 mm 0.00 in0.0 mm 0.00 in0.0 mm
12:42 AM 81.3°F27.4°C 60.3°F15.7°C 49% 10.7 mph 17.2 kmh 15.9 mph25.6 kmh 30.20 in1022.7 mb 0.00 in0.0 mm 0.00 in0.0 mm 0.00 in0.0 mm
12:41 AM 81.3°F27.4°C 60.3°F15.7°C 49% 10.7 mph 17.2 kmh 15.9 mph25.6 kmh 30.20 in1022.7 mb 0.00 in0.0 mm 0.00 in0.0 mm 0.00 in0.0 mm
12:40 AM 81.5°F27.5°C 60.5°F15.8°C 49% 9.2 mph NW14.8 kmh NW 13.7 mph22.0 kmh 30.20 in1022.7 mb 0.00 in0.0 mm 0.00 in0.0 mm 0.00 in0.0 mm
12:39 AM 81.5°F27.5°C 59.9°F15.5°C 48% 9.8 mph WNW15.8 kmh WNW 14.5 mph23.3 kmh 30.20 in1022.7 mb 0.00 in0.0 mm 0.00 in0.0 mm 0.00 in0.0 mm
12:38 AM 81.5°F27.5°C 59.9°F15.5°C 48% 9.8 mph WNW15.8 kmh WNW 14.5 mph23.3 kmh 30.20 in1022.7 mb 0.00 in0.0 mm 0.00 in0.0 mm 0.00 in0.0 mm
12:37 AM 81.5°F27.5°C 59.9°F15.5°C 48% 6.9 mph 11.1 kmh 10.7 mph17.2 kmh 30.20 in1022.7 mb 0.00 in0.0 mm 0.00 in0.0 mm 0.00 in0.0 mm
12:36 AM 81.5°F27.5°C 59.9°F15.5°C 48% 6.9 mph 11.1 kmh 10.7 mph17.2 kmh 30.20 in1022.7 mb 0.00 in0.0 mm 0.00 in0.0 mm 0.00 in0.0 mm
12:35 AM 81.7°F27.6°C 60.1°F15.6°C 48% 5.4 mph 8.7 kmh 9.2 mph14.8 kmh 30.20 in1022.7 mb 0.00 in0.0 mm 0.00 in0.0 mm 0.00 in0.0 mm
12:34 AM 81.7°F27.6°C 60.1°F15.6°C 48% 6.0 mph NW9.7 kmh NW 9.2 mph14.8 kmh 30.20 in1022.7 mb 0.00 in0.0 mm 0.00 in0.0 mm 0.00 in0.0 mm
12:33 AM 81.7°F27.6°C 60.1°F15.6°C 48% 6.0 mph NW9.7 kmh NW 9.2 mph14.8 kmh 30.20 in1022.7 mb 0.00 in0.0 mm 0.00 in0.0 mm 0.00 in0.0 mm
12:32 AM 81.7°F27.6°C 60.1°F15.6°C 48% 6.9 mph NW11.1 kmh NW 10.7 mph17.2 kmh 30.20 in1022.7 mb 0.00 in0.0 mm 0.00 in0.0 mm 0.00 in0.0 mm
12:31 AM 81.7°F27.6°C 60.1°F15.6°C 48% 8.3 mph NW13.4 kmh NW 13.0 mph20.9 kmh 30.20 in1022.7 mb 0.00 in0.0 mm 0.00 in0.0 mm 0.00 in0.0 mm
12:30 AM 81.7°F27.6°C 60.1°F15.6°C 48% 8.3 mph NW13.4 kmh NW 13.0 mph20.9 kmh 30.20 in1022.7 mb 0.00 in0.0 mm 0.00 in0.0 mm 0.00 in0.0 mm
12:29 AM 81.9°F27.7°C 60.2°F15.7°C 48% 7.6 mph NW12.2 kmh NW 9.8 mph15.8 kmh 30.20 in1022.7 mb 0.00 in0.0 mm 0.00 in0.0 mm 0.00 in0.0 mm
12:28 AM 81.9°F27.7°C 60.2°F15.7°C 48% 7.6 mph NW12.2 kmh NW 9.8 mph15.8 kmh 30.20 in1022.7 mb 0.00 in0.0 mm 0.00 in0.0 mm 0.00 in0.0 mm
12:27 AM 81.7°F27.6°C 60.1°F15.6°C 48% 9.2 mph SE14.8 kmh SE 13.7 mph22.0 kmh 30.20 in1022.7 mb 0.00 in0.0 mm 0.00 in0.0 mm 0.00 in0.0 mm
12:26 AM 81.7°F27.6°C 60.1°F15.6°C 48% 10.7 mph WNW17.2 kmh WNW 13.7 mph22.0 kmh 30.20 in1022.7 mb 0.00 in0.0 mm 0.00 in0.0 mm 0.00 in0.0 mm
12:25 AM 81.7°F27.6°C 60.1°F15.6°C 48% 9.2 mph 14.8 kmh 12.1 mph19.5 kmh 30.20 in1022.7 mb 0.00 in0.0 mm 0.00 in0.0 mm 0.00 in0.0 mm
12:24 AM 81.5°F27.5°C 59.9°F15.5°C 48% 9.2 mph NW14.8 kmh NW 11.4 mph18.3 kmh 30.20 in1022.7 mb 0.00 in0.0 mm 0.00 in0.0 mm 0.00 in0.0 mm
12:23 AM 81.5°F27.5°C 60.5°F15.8°C 49% 12.1 mph 19.5 kmh 14.5 mph23.3 kmh 30.20 in1022.7 mb 0.00 in0.0 mm 0.00 in0.0 mm 0.00 in0.0 mm
12:22 AM 81.5°F27.5°C 60.5°F15.8°C 49% 12.1 mph 19.5 kmh 14.5 mph23.3 kmh 30.20 in1022.7 mb 0.00 in0.0 mm 0.00 in0.0 mm 0.00 in0.0 mm
12:21 AM 81.7°F27.6°C 60.6°F15.9°C 49% 7.6 mph 12.2 kmh 10.7 mph17.2 kmh 30.20 in1022.7 mb 0.00 in0.0 mm 0.00 in0.0 mm 0.00 in0.0 mm
12:20 AM 81.7°F27.6°C 60.6°F15.9°C 49% 7.6 mph 12.2 kmh 10.7 mph17.2 kmh 30.20 in1022.7 mb 0.00 in0.0 mm 0.00 in0.0 mm 0.00 in0.0 mm
12:19 AM 81.7°F27.6°C 60.6°F15.9°C 49% 6.0 mph 9.7 kmh 8.3 mph13.4 kmh 30.20 in1022.7 mb 0.00 in0.0 mm 0.00 in0.0 mm 0.00 in0.0 mm
12:18 AM 81.7°F27.6°C 60.6°F15.9°C 49% 8.3 mph 13.4 kmh 10.7 mph17.2 kmh 30.20 in1022.7 mb 0.00 in0.0 mm 0.00 in0.0 mm 0.00 in0.0 mm
12:17 AM 81.7°F27.6°C 60.6°F15.9°C 49% 8.3 mph 13.4 kmh 10.7 mph17.2 kmh 30.20 in1022.7 mb 0.00 in0.0 mm 0.00 in0.0 mm 0.00 in0.0 mm
12:16 AM 81.7°F27.6°C 60.6°F15.9°C 49% 9.2 mph SSW14.8 kmh SSW 11.4 mph18.3 kmh 30.20 in1022.7 mb 0.00 in0.0 mm 0.00 in0.0 mm 0.00 in0.0 mm
12:15 AM 81.7°F27.6°C 60.6°F15.9°C 49% 9.2 mph NW14.8 kmh NW 13.0 mph20.9 kmh 30.20 in1022.7 mb 0.00 in0.0 mm 0.00 in0.0 mm 0.00 in0.0 mm
12:14 AM 81.7°F27.6°C 60.6°F15.9°C 49% 13.0 mph WNW20.9 kmh WNW 15.9 mph25.6 kmh 30.20 in1022.7 mb 0.00 in0.0 mm 0.00 in0.0 mm 0.00 in0.0 mm
12:13 AM 81.5°F27.5°C 60.5°F15.8°C 49% 10.7 mph NW17.2 kmh NW 13.7 mph22.0 kmh 30.20 in1022.7 mb 0.00 in0.0 mm 0.00 in0.0 mm 0.00 in0.0 mm
12:12 AM 81.5°F27.5°C 60.5°F15.8°C 49% 10.7 mph NW17.2 kmh NW 13.7 mph22.0 kmh 30.20 in1022.7 mb 0.00 in0.0 mm 0.00 in0.0 mm 0.00 in0.0 mm
12:11 AM 81.5°F27.5°C 61.0°F16.1°C 50% 10.7 mph NW17.2 kmh NW 13.0 mph20.9 kmh 30.20 in1022.7 mb 0.00 in0.0 mm 0.00 in0.0 mm 0.00 in0.0 mm
12:10 AM 81.5°F27.5°C 61.0°F16.1°C 50% 12.1 mph 19.5 kmh 14.5 mph23.3 kmh 30.20 in1022.7 mb 0.00 in0.0 mm 0.00 in0.0 mm 0.00 in0.0 mm
12:09 AM 81.5°F27.5°C 61.0°F16.1°C 50% 12.1 mph 19.5 kmh 14.5 mph23.3 kmh 30.20 in1022.7 mb 0.00 in0.0 mm 0.00 in0.0 mm 0.00 in0.0 mm
12:08 AM 81.5°F27.5°C 61.0°F16.1°C 50% 9.8 mph NW15.8 kmh NW 15.9 mph25.6 kmh 30.20 in1022.7 mb 0.00 in0.0 mm 0.00 in0.0 mm 0.00 in0.0 mm
12:07 AM 81.5°F27.5°C 61.6°F16.4°C 51% 9.2 mph 14.8 kmh 12.1 mph19.5 kmh 30.20 in1022.7 mb 0.00 in0.0 mm 0.00 in0.0 mm 0.00 in0.0 mm
12:06 AM 81.5°F27.5°C 61.6°F16.4°C 51% 9.2 mph 14.8 kmh 12.1 mph19.5 kmh 30.20 in1022.7 mb 0.00 in0.0 mm 0.00 in0.0 mm 0.00 in0.0 mm
12:05 AM 81.5°F27.5°C 61.6°F16.4°C 51% 12.1 mph 19.5 kmh 13.7 mph22.0 kmh 30.20 in1022.7 mb 0.00 in0.0 mm 0.00 in0.0 mm 0.00 in0.0 mm
12:04 AM 81.5°F27.5°C 61.6°F16.4°C 51% 12.1 mph 19.5 kmh 13.7 mph22.0 kmh 30.20 in1022.7 mb 0.00 in0.0 mm 0.00 in0.0 mm 0.00 in0.0 mm
12:03 AM 81.5°F27.5°C 61.6°F16.4°C 51% 6.9 mph 11.1 kmh 11.4 mph18.3 kmh 30.20 in1022.7 mb 0.00 in0.0 mm 0.00 in0.0 mm 0.00 in0.0 mm
12:02 AM 81.5°F27.5°C 61.6°F16.4°C 51% 7.6 mph NNW12.2 kmh NNW 13.0 mph20.9 kmh 30.20 in1022.7 mb 0.00 in0.0 mm 0.00 in0.0 mm 0.00 in0.0 mm
12:01 AM 81.5°F27.5°C 61.6°F16.4°C 51% 7.6 mph NNW12.2 kmh NNW 13.0 mph20.9 kmh 30.20 in1022.7 mb 0.00 in0.0 mm 0.00 in0.0 mm 0.00 in0.0 mm
12:00 AM 81.5°F27.5°C 61.6°F16.4°C 51% 7.6 mph NNW12.2 kmh NNW 9.8 mph15.8 kmh 30.20 in1022.7 mb 0.00 in0.0 mm 0.00 in0.0 mm 0.00 in0.0 mm